Kismet Wireless

Kismet Forums

 

Posted by:fisted
Subject:GPS Speed=0.0000 problem maybe solved.
Date:16:43:52 12/04/2010

> > update:
> >
> > i took a look at gpspipe while driving and found out my gps is reporting our velocity in m/s.
> >
> > kismet thinks its unit is knots, so it multiplies the value with that 0.514 factor, which gives that weird speed results as mentioned in the original post.
> > after commenting out this factor, kismet client finally shows the correct speed, in m/s (but displayed as m/hr, however i couldnt care less, the value itself is correct :o))
> > to get km/h, for now i add *3.6 as a new factor, where it was multiplied by 0.514 before
>
> So that's odd.
>
> So the NMEA spec sends speed-over-ground in knots.
>
> Various versions of gpsd have sent this in meters/sec OR knots (and theres no real way to know other than looking at the gpsd version), which Kismet tries to identify.
>
> I'm not sure what you're sending it with gpspipe.
>
> -m

agree, this is odd.

i dont send anything with gpspipe (or did i missunderstand you?), i just start gpsd and then gpspipe and watch the output.

i have just done another reference measurement, following to these steps:

firstly i rebooted, just to be sure everything is proper and untouched.
then i invoked gpsd like this: gpsd -N -b -D4 /dev/rfcomm0 &> gpsdoutput
(rfcomm0 is my bluetooth device)
few seconds after, i started gpspipe twice, one with -r and one with -w switch like this: gpspipe -r &> gpspipe_r_output (and same for 'w')
(i was standing still at this moment)
then i accelerated my car to approx 100 km/h, and held this speed for a while (+- 3 km/h).
finally i deaccelerated to 0 km/h, and then killed gpsd and the gpspipes.

NOTE: since speedometers of cars report always a slightly higher velocity than one is actually driving, its likely that the values gpspipe reports are slightly lower than expected.

here is the output of gpspipe -r:
GPSD,R=1

$GPGSV,3,3,12,26,09,297,37,21,08,299,36,19,06,022,36,07,04,070,33*7C

$GPRMC,162035.000,A,5036.2827,N,00701.8484,E,0.09,101.93,120410,0,,A*51

$GPGGA,162036.000,5036.2827,N,00701.8484,E,1,11,0.8,190.0,M,47.7,M,,0000*51

$GPGSA,A,3,27,24,28,08,15,18,10,21,05,19,26,,1.5,0.8,1.3*3B

$GPRMC,162036.000,A,5036.2827,N,00701.8484,E,0.09,112.29,120410,0,,A*51

$GPGGA,162037.000,5036.2828,N,00701.8483,E,1,11,0.8,190.0,M,47.7,M,,0000*58

$GPGSA,A,3,27,24,28,08,15,18,10,21,05,19,26,,1.5,0.8,1.3*3B

$GPRMC,162037.000,A,5036.2828,N,00701.8483,E,0.94,340.08,120410,0,,A*5A

$GPGGA,162038.000,5036.2837,N,00701.8479,E,1,11,0.8,190.0,M,47.7,M,,0000*5C

$GPGSA,A,3,27,24,28,08,15,18,10,21,05,19,26,,1.5,0.8,1.3*3B

$GPRMC,162038.000,A,5036.2837,N,00701.8479,E,5.55,343.66,120410,0,,A*5D

$GPGGA,162039.000,5036.2860,N,00701.8469,E,1,11,0.8,189.9,M,47.7,M,,0000*5F

$GPGSA,A,3,27,24,28,08,15,18,10,21,05,19,26,,1.5,0.8,1.3*3B

$GPRMC,162039.000,A,5036.2860,N,00701.8469,E,10.71,343.77,120410,0,,A*6D

$GPGGA,162040.000,5036.2895,N,00701.8453,E,1,11,0.8,189.9,M,47.7,M,,0000*52

$GPGSA,A,3,27,24,28,08,15,18,10,21,05,19,26,,1.5,0.8,1.3*3B

$GPGSV,3,1,12,15,60,294,44,28,57,092,42,08,39,064,44,05,33,197,34*7D

$GPGSV,3,2,12,27,28,256,36,18,14,320,31,10,14,177,23,24,10,303,34*7B

$GPGSV,3,3,12,26,09,297,36,21,08,299,36,19,06,022,32,07,04,070,30*7A

$GPRMC,162040.000,A,5036.2895,N,00701.8453,E,14.33,344.25,120410,0,,A*62

$GPGGA,162041.000,5036.2940,N,00701.8433,E,1,11,0.8,189.8,M,47.7,M,,0000*5D

$GPGSA,A,3,27,24,28,08,15,18,10,21,05,19,26,,1.5,0.8,1.3*3B

$GPRMC,162041.000,A,5036.2940,N,00701.8433,E,18.42,343.89,120410,0,,A*67

$GPGGA,162042.000,5036.2996,N,00701.8408,E,1,11,0.8,189.6,M,47.7,M,,0000*53

$GPGSA,A,3,27,24,28,08,15,18,10,21,05,19,26,,1.5,0.8,1.3*3B

$GPRMC,162042.000,A,5036.2996,N,00701.8408,E,22.37,343.91,120410,0,,A*65

$GPGGA,162043.000,5036.3062,N,00701.8378,E,1,11,0.8,189.4,M,47.7,M,,0000*53

$GPGSA,A,3,27,24,28,08,15,18,10,21,05,19,26,,1.5,0.8,1.3*3B

$GPRMC,162043.000,A,5036.3062,N,00701.8378,E,26.28,343.95,120410,0,,A*69

$GPGGA,162044.000,5036.3137,N,00701.8345,E,1,11,0.8,189.3,M,47.7,M,,0000*5C

$GPGSA,A,3,27,24,28,08,15,18,10,21,05,19,26,,1.5,0.8,1.3*3B

$GPRMC,162044.000,A,5036.3137,N,00701.8345,E,28.34,344.04,120410,0,,A*6D

$GPGGA,162045.000,5036.3218,N,00701.8308,E,1,11,0.8,189.2,M,47.7,M,,0000*5B

$GPGSA,A,3,27,24,28,08,15,18,10,21,05,19,26,,1.5,0.8,1.3*3B

$GPGSV,3,1,12,15,60,294,44,28,57,092,42,08,39,064,44,05,33,197,35*7C

$GPGSV,3,2,12,27,28,256,37,18,14,320,36,10,14,177,24,24,10,303,35*7B

$GPGSV,3,3,12,26,09,297,36,21,08,299,36,19,06,022,35,07,04,070,26*7A

$GPRMC,162045.000,A,5036.3218,N,00701.8308,E,31.42,343.88,120410,0,,A*61

$GPGGA,162046.000,5036.3310,N,00701.8268,E,1,11,0.8,189.5,M,47.7,M,,0000*51

$GPGSA,A,3,27,24,28,08,15,18,10,21,05,19,26,,1.5,0.8,1.3*3B

$GPRMC,162046.000,A,5036.3310,N,00701.8268,E,33.95,344.01,120410,0,,A*62

$GPGGA,162047.000,5036.3408,N,00701.8225,E,1,11,0.8,189.5,M,47.7,M,,0000*57

$GPGSA,A,3,27,24,28,08,15,18,10,21,05,19,26,,1.5,0.8,1.3*3B

$GPRMC,162047.000,A,5036.3408,N,00701.8225,E,36.75,344.10,120410,0,,A*6F

$GPGGA,162048.000,5036.3513,N,00701.8178,E,1,11,0.8,189.5,M,47.7,M,,0000*58

$GPGSA,A,3,27,24,28,08,15,18,10,21,05,19,26,,1.5,0.8,1.3*3B

$GPRMC,162048.000,A,5036.3513,N,00701.8178,E,39.25,344.07,120410,0,,A*6C

$GPGGA,162049.000,5036.3624,N,00701.8129,E,1,11,0.8,189.4,M,47.7,M,,0000*5B

$GPGSA,A,3,27,24,28,08,15,18,10,21,05,19,26,,1.5,0.8,1.3*3B

$GPRMC,162049.000,A,5036.3624,N,00701.8129,E,41.18,344.26,120410,0,,A*6C

$GPGGA,162050.000,5036.3739,N,00701.8078,E,1,11,0.8,189.3,M,47.7,M,,0000*5C

$GPGSA,A,3,27,24,28,08,15,18,10,21,05,19,26,,1.5,0.8,1.3*3B

$GPGSV,3,1,12,15,61,294,44,28,57,091,42,08,39,064,44,05,33,196,36*7C

$GPGSV,3,2,12,27,28,256,38,18,15,320,36,10,14,177,27,24,10,303,35*76

$GPGSV,3,3,12,26,09,298,36,21,08,298,36,19,06,022,27,07,04,070,31*71

$GPRMC,162050.000,A,5036.3739,N,00701.8078,E,42.63,344.00,120410,0,,A*67

$GPGGA,162051.000,5036.3858,N,00701.8026,E,1,11,0.8,189.3,M,47.7,M,,0000*5E

$GPGSA,A,3,27,24,28,08,15,18,10,21,05,19,26,,1.5,0.8,1.3*3B

$GPRMC,162051.000,A,5036.3858,N,00701.8026,E,44.12,344.12,120410,0,,A*66

$GPGGA,162052.000,5036.3981,N,00701.7971,E,1,11,0.8,189.3,M,47.7,M,,0000*5C

$GPGSA,A,3,27,24,28,08,15,18,10,21,05,19,26,,1.5,0.8,1.3*3B

$GPRMC,162052.000,A,5036.3981,N,00701.7971,E,45.86,344.19,120410,0,,A*63

$GPGGA,162053.000,5036.4108,N,00701.7915,E,1,11,0.8,189.2,M,47.7,M,,0000*50

$GPGSA,A,3,27,24,28,08,15,18,10,21,05,19,26,,1.5,0.8,1.3*3B

$GPRMC,162053.000,A,5036.4108,N,00701.7915,E,47.68,344.20,120410,0,,A*66

$GPGGA,162054.000,5036.4240,N,00701.7856,E,1,11,0.8,189.2,M,47.7,M,,0000*5E

$GPGSA,A,3,27,24,28,08,15,18,10,21,05,19,26,,1.5,0.8,1.3*3B

$GPRMC,162054.000,A,5036.4240,N,00701.7856,E,49.43,344.02,120410,0,,A*6F

$GPGGA,162055.000,5036.4376,N,00701.7795,E,1,11,0.8,189.3,M,47.7,M,,0000*5A

$GPGSA,A,3,27,24,28,08,15,18,10,21,05,19,26,,1.5,0.8,1.3*3B

$GPGSV,3,1,12,15,61,294,43,28,57,091,43,08,39,064,44,05,33,196,36*7A

$GPGSV,3,2,12,27,28,256,38,18,15,320,34,10,14,177,27,24,10,303,30*71

$GPGSV,3,3,12,26,09,298,32,21,08,298,36,19,06,022,32,07,04,070,28*79

$GPRMC,162055.000,A,5036.4376,N,00701.7795,E,50.86,343.92,120410,0,,A*65

$GPGGA,162056.000,5036.4515,N,00701.7732,E,1,11,0.8,189.3,M,47.7,M,,0000*57

$GPGSA,A,3,27,24,28,08,15,18,10,21,05,19,26,,1.5,0.8,1.3*3B

$GPRMC,162056.000,A,5036.4515,N,00701.7732,E,52.08,344.05,120410,0,,A*65

$GPGGA,162057.000,5036.4654,N,00701.7669,E,1,11,0.8,189.2,M,47.7,M,,0000*5E

$GPGSA,A,3,27,24,28,08,15,18,10,21,05,19,26,,1.5,0.8,1.3*3B

$GPRMC,162057.000,A,5036.4654,N,00701.7669,E,51.33,343.91,120410,0,,A*6C

$GPGGA,162058.000,5036.4792,N,00701.7607,E,1,11,0.8,189.2,M,47.7,M,,0000*52

$GPGSA,A,3,27,24,28,08,15,18,10,21,05,19,26,,1.5,0.8,1.3*3B

$GPRMC,162058.000,A,5036.4792,N,00701.7607,E,50.49,344.05,120410,0,,A*66

$GPGGA,162059.000,5036.4928,N,00701.7545,E,1,11,0.8,189.2,M,47.7,M,,0000*59

$GPGSA,A,3,27,24,28,08,15,18,10,21,05,19,26,,1.5,0.8,1.3*3B

$GPRMC,162059.000,A,5036.4928,N,00701.7545,E,50.85,343.84,120410,0,,A*63

$GPGGA,162100.000,5036.5065,N,00701.7483,E,1,11,0.8,189.2,M,47.7,M,,0000*5E

$GPGSA,A,3,27,24,28,08,15,18,10,21,05,19,26,,1.5,0.8,1.3*3B

$GPGSV,3,1,12,15,61,294,44,28,57,091,43,08,39,064,44,05,33,196,36*7D

$GPGSV,3,2,12,27,28,256,37,18,15,320,27,10,14,177,27,24,10,303,32*7E

$GPGSV,3,3,12,26,09,298,34,21,08,298,35,19,06,022,33,07,04,070,23*76

$GPRMC,162100.000,A,5036.5065,N,00701.7483,E,51.14,344.07,120410,0,,A*61

$GPGGA,162101.000,5036.5203,N,00701.7421,E,1,11,0.8,189.3,M,47.7,M,,0000*54

$GPGSA,A,3,27,24,28,08,15,18,10,21,05,19,26,,1.5,0.8,1.3*3B

$GPRMC,162101.000,A,5036.5203,N,00701.7421,E,51.81,344.16,120410,0,,A*66

$GPGGA,162102.000,5036.5342,N,00701.7359,E,1,11,0.8,189.0,M,47.7,M,,0000*58

$GPGSA,A,3,27,24,28,08,15,18,10,21,05,19,26,,1.5,0.8,1.3*3B

$GPRMC,162102.000,A,5036.5342,N,00701.7359,E,51.91,344.02,120410,0,,A*6D

$GPGGA,162103.000,5036.5481,N,00701.7296,E,1,10,0.8,188.8,M,47.7,M,,0000*5B

$GPGSA,A,3,27,24,28,08,15,18,10,05,19,26,,,1.5,0.8,1.3*38

$GPRMC,162103.000,A,5036.5481,N,00701.7296,E,51.81,344.12,120410,0,,A*66

$GPGGA,162104.000,5036.5620,N,00701.7233,E,1,10,1.1,188.4,M,47.7,M,,0000*5E

$GPGSA,A,3,27,24,28,08,15,18,21,05,19,26,,,2.0,1.1,1.7*30

$GPRMC,162104.000,A,5036.5620,N,00701.7233,E,51.69,344.02,120410,0,,A*60

$GPGGA,162105.000,5036.5758,N,00701.7170,E,1,10,1.1,188.2,M,47.7,M,,0000*53

$GPGSA,A,3,27,24,28,08,15,18,21,05,19,26,,,2.0,1.1,1.7*30

$GPGSV,3,1,12,15,61,294,44,28,57,091,43,08,39,064,44,05,33,196,34*7F

$GPGSV,3,2,12,27,28,256,37,18,15,320,37,10,14,177,,24,10,303,35*7D

$GPGSV,3,3,12,26,09,298,38,21,08,298,38,19,06,022,34,07,04,070,29*7A

$GPRMC,162105.000,A,5036.5758,N,00701.7170,E,51.43,343.94,120410,0,,A*6B

$GPGGA,162106.000,5036.5897,N,00701.7108,E,1,11,0.8,187.9,M,47.7,M,,0000*5E

$GPGSA,A,3,27,24,28,08,15,18,10,21,05,19,26,,1.5,0.8,1.3*3B

$GPRMC,162106.000,A,5036.5897,N,00701.7108,E,51.77,344.12,120410,0,,A*65

$GPGGA,162107.000,5036.6036,N,00701.7045,E,1,11,0.8,187.6,M,47.7,M,,0000*58

$GPGSA,A,3,27,24,28,08,15,18,10,21,05,19,26,,1.5,0.8,1.3*3B

$GPRMC,162107.000,A,5036.6036,N,00701.7045,E,51.78,344.24,120410,0,,A*66

$GPGGA,162108.000,5036.6175,N,00701.6983,E,1,11,0.8,187.3,M,47.7,M,,0000*56

$GPGSA,A,3,27,24,28,08,15,18,10,21,05,19,26,,1.5,0.8,1.3*3B

$GPRMC,162108.000,A,5036.6175,N,00701.6983,E,51.78,344.24,120410,0,,A*6D

$GPGGA,162109.000,5036.6314,N,00701.6921,E,1,11,0.8,187.0,M,47.7,M,,0000*59

$GPGSA,A,3,27,24,28,08,15,18,10,21,05,19,26,,1.5,0.8,1.3*3B

$GPRMC,162109.000,A,5036.6314,N,00701.6921,E,51.97,343.97,120410,0,,A*6F

$GPGGA,162110.000,5036.6453,N,00701.6858,E,1,11,0.8,186.6,M,47.7,M,,0000*5D

$GPGSA,A,3,27,24,28,08,15,18,10,21,05,19,26,,1.5,0.8,1.3*3B

$GPGSV,3,1,12,15,61,294,44,28,57,091,43,08,39,064,45,05,33,196,35*7F

$GPGSV,3,2,12,27,28,256,37,18,15,320,36,10,14,177,24,24,10,303,35*7A

$GPGSV,3,3,12,26,09,298,37,21,08,298,38,19,06,022,34,07,04,070,26*7A

$GPRMC,162110.000,A,5036.6453,N,00701.6858,E,51.63,343.97,120410,0,,A*67

$GPGGA,162111.000,5036.6590,N,00701.6796,E,1,11,0.8,186.3,M,47.7,M,,0000*5A

$GPGSA,A,3,27,24,28,08,15,18,10,21,05,19,26,,1.5,0.8,1.3*3B

$GPRMC,162111.000,A,5036.6590,N,00701.6796,E,50.58,344.06,120410,0,,A*63

$GPGGA,162112.000,5036.6721,N,00701.6737,E,1,11,0.8,186.1,M,47.7,M,,0000*58

$GPGSA,A,3,27,24,28,08,15,18,10,21,05,19,26,,1.5,0.8,1.3*3B

$GPRMC,162112.000,A,5036.6721,N,00701.6737,E,47.39,344.44,120410,0,,A*64

$GPGGA,162113.000,5036.6842,N,00701.6684,E,1,11,0.8,185.8,M,47.7,M,,0000*50

$GPGSA,A,3,27,24,28,08,15,18,10,21,05,19,26,,1.5,0.8,1.3*3B

$GPRMC,162113.000,A,5036.6842,N,00701.6684,E,42.98,344.59,120410,0,,A*64

$GPGGA,162114.000,5036.6950,N,00701.6636,E,1,11,0.8,185.5,M,47.7,M,,0000*51

$GPGSA,A,3,27,24,28,08,15,18,10,21,05,19,26,,1.5,0.8,1.3*3B

$GPRMC,162114.000,A,5036.6950,N,00701.6636,E,37.99,344.37,120410,0,,A*63

$GPGGA,162115.000,5036.7044,N,00701.6594,E,1,11,0.8,185.3,M,47.7,M,,0000*50

$GPGSA,A,3,27,24,28,08,15,18,10,21,05,19,26,,1.5,0.8,1.3*3B

$GPGSV,3,1,12,15,61,294,44,28,57,091,43,08,39,064,44,05,33,196,34*7F

$GPGSV,3,2,12,27,28,256,37,18,15,320,36,10,14,177,27,24,10,303,35*79

$GPGSV,3,3,12,26,09,298,37,21,08,298,38,19,06,022,33,07,04,070,16*7E

$GPRMC,162115.000,A,5036.7044,N,00701.6594,E,32.74,344.32,120410,0,,A*67

$GPGGA,162116.000,5036.7124,N,00701.6559,E,1,11,0.8,185.0,M,47.7,M,,0000*56

$GPGSA,A,3,27,24,28,08,15,18,10,21,05,19,26,,1.5,0.8,1.3*3B

$GPRMC,162116.000,A,5036.7124,N,00701.6559,E,27.49,344.83,120410,0,,A*62

$GPGGA,162117.000,5036.7189,N,00701.6531,E,1,11,0.8,184.9,M,47.7,M,,0000*56

$GPGSA,A,3,27,24,28,08,15,18,10,21,05,19,26,,1.5,0.8,1.3*3B

$GPRMC,162117.000,A,5036.7189,N,00701.6531,E,21.85,345.08,120410,0,,A*6E

$GPGGA,162118.000,5036.7238,N,00701.6510,E,1,11,0.8,184.7,M,47.7,M,,0000*5D

$GPGSA,A,3,27,24,28,08,15,18,10,21,05,19,26,,1.5,0.8,1.3*3B


when piping this through grep 'RMC' we see at this point the reported speed unit is knots, as expected.

but

here is the output of gpspipe -w reports it in m/s, take a look:
GPSD,X=1271089224.247605,I=Generic NMEA

GPSD,W=1

GPSD,Y=GSV 0.000 12:15 60 294 45 1:28 57 92 43 1:8 39 64 38 1:5 33 197 34 1:27 28 256 37 1:18 14 320 30 1:10 14 177 30 1:24 10 303 28 1:26 9 297 37 1:21 8 299 36 1:19 6 22 36 1:7 4 70 33 0:

GPSD,O=RMC 1271089235.000 0.005 50.604711667 7.030806667 ? 12.000 ? 101.9300 0.046 ? ? ? ? 2

GPSD,O=GGA 1271089236.000 0.005 50.604711667 7.030806667 190.000 12.000 29.900 ? ? 0.000 ? 24.00 ? 3

GPSD,O=GSA 1271089236.000 0.005 50.604711667 7.030806667 190.000 12.000 29.900 ? ? 0.000 ? 24.00 ? 3

GPSD,O=RMC 1271089236.000 0.005 50.604711667 7.030806667 190.000 12.000 29.900 112.2900 0.046 0.000 ? 24.00 ? 3

GPSD,O=GGA 1271089237.000 0.005 50.604713333 7.030805000 190.000 12.000 29.900 ? ? 0.000 ? 24.00 ? 3

GPSD,O=GSA 1271089237.000 0.005 50.604713333 7.030805000 190.000 12.000 29.900 ? ? 0.000 ? 24.00 ? 3

GPSD,O=RMC 1271089237.000 0.005 50.604713333 7.030805000 190.000 12.000 29.900 340.0800 0.484 0.000 ? 24.00 ? 3

GPSD,O=GGA 1271089238.000 0.005 50.604728333 7.030798333 190.000 12.000 29.900 ? ? 0.000 ? 24.00 ? 3

GPSD,O=GSA 1271089238.000 0.005 50.604728333 7.030798333 190.000 12.000 29.900 ? ? 0.000 ? 24.00 ? 3

GPSD,O=RMC 1271089238.000 0.005 50.604728333 7.030798333 190.000 12.000 29.900 343.6600 2.855 0.000 ? 24.00 ? 3

GPSD,O=GGA 1271089239.000 0.005 50.604766667 7.030781667 189.900 12.000 29.900 ? ? 0.000 ? 24.00 ? 3

GPSD,O=GSA 1271089239.000 0.005 50.604766667 7.030781667 189.900 12.000 29.900 ? ? 0.000 ? 24.00 ? 3

GPSD,O=RMC 1271089239.000 0.005 50.604766667 7.030781667 189.900 12.000 29.900 343.7700 5.510 0.000 ? 24.00 ? 3

GPSD,O=GGA 1271089240.000 0.005 50.604825000 7.030755000 189.900 12.000 29.900 ? ? 0.000 ? 24.00 ? 3

GPSD,O=GSA 1271089240.000 0.005 50.604825000 7.030755000 189.900 12.000 29.900 ? ? 0.000 ? 24.00 ? 3

GPSD,Y=GSV 1271089240.000 12:15 60 294 44 1:28 57 92 42 1:8 39 64 44 1:5 33 197 34 1:27 28 256 36 1:18 14 320 31 1:10 14 177 23 1:24 10 303 34 1:26 9 297 36 1:21 8 299 36 1:19 6 22 32 1:7 4 70 30 0:

GPSD,O=RMC 1271089240.000 0.005 50.604825000 7.030755000 189.900 12.000 29.900 344.2500 7.372 0.000 ? 24.00 ? 3

GPSD,O=GGA 1271089241.000 0.005 50.604900000 7.030721667 189.800 12.000 29.900 ? ? 0.000 ? 24.00 ? 3

GPSD,O=GSA 1271089241.000 0.005 50.604900000 7.030721667 189.800 12.000 29.900 ? ? 0.000 ? 24.00 ? 3

GPSD,O=RMC 1271089241.000 0.005 50.604900000 7.030721667 189.800 12.000 29.900 343.8900 9.476 0.000 ? 24.00 ? 3

GPSD,O=GGA 1271089242.000 0.005 50.604993333 7.030680000 189.600 12.000 29.900 ? ? 0.000 ? 24.00 ? 3

GPSD,O=GSA 1271089242.000 0.005 50.604993333 7.030680000 189.600 12.000 29.900 ? ? 0.000 ? 24.00 ? 3

GPSD,O=RMC 1271089242.000 0.005 50.604993333 7.030680000 189.600 12.000 29.900 343.9100 11.508 0.000 ? 24.00 ? 3

GPSD,O=GGA 1271089243.000 0.005 50.605103333 7.030630000 189.400 12.000 29.900 ? ? 0.000 86.5504 24.00 ? 3

GPSD,O=GSA 1271089243.000 0.005 50.605103333 7.030630000 189.400 12.000 29.900 ? ? 0.000 86.5504 24.00 ? 3

GPSD,O=RMC 1271089243.000 0.005 50.605103333 7.030630000 189.400 12.000 29.900 343.9500 13.520 0.000 86.5504 24.00 ? 3

GPSD,O=GGA 1271089244.000 0.005 50.605228333 7.030575000 189.300 12.000 29.900 ? ? 0.000 79.4170 24.00 ? 3

GPSD,O=GSA 1271089244.000 0.005 50.605228333 7.030575000 189.300 12.000 29.900 ? ? 0.000 79.4170 24.00 ? 3

GPSD,O=RMC 1271089244.000 0.005 50.605228333 7.030575000 189.300 12.000 29.900 344.0400 14.579 0.000 79.4170 24.00 ? 3

GPSD,O=GGA 1271089245.000 0.005 50.605363333 7.030513333 189.200 12.000 29.900 ? ? 0.000 74.9623 24.00 ? 3

GPSD,O=GSA 1271089245.000 0.005 50.605363333 7.030513333 189.200 12.000 29.900 ? ? 0.000 74.9623 24.00 ? 3

GPSD,Y=GSV 1271089245.000 12:15 60 294 44 1:28 57 92 42 1:8 39 64 44 1:5 33 197 35 1:27 28 256 37 1:18 14 320 36 1:10 14 177 24 1:24 10 303 35 1:26 9 297 36 1:21 8 299 36 1:19 6 22 35 1:7 4 70 26 0:

GPSD,O=RMC 1271089245.000 0.005 50.605363333 7.030513333 189.200 12.000 29.900 343.8800 16.164 0.000 74.9623 24.00 ? 3

GPSD,O=GGA 1271089246.000 0.005 50.605516667 7.030446667 189.500 12.000 29.900 ? ? 0.000 68.2423 24.00 ? 3

GPSD,O=GSA 1271089246.000 0.005 50.605516667 7.030446667 189.500 12.000 29.900 ? ? 0.000 68.2423 24.00 ? 3

GPSD,O=RMC 1271089246.000 0.005 50.605516667 7.030446667 189.500 12.000 29.900 344.0100 17.465 0.000 68.2423 24.00 ? 3

GPSD,O=GGA 1271089247.000 0.005 50.605680000 7.030375000 189.500 12.000 29.900 ? ? 0.000 64.8865 24.00 ? 3

GPSD,O=GSA 1271089247.000 0.005 50.605680000 7.030375000 189.500 12.000 29.900 ? ? 0.000 64.8865 24.00 ? 3

GPSD,O=RMC 1271089247.000 0.005 50.605680000 7.030375000 189.500 12.000 29.900 344.1000 18.906 0.000 64.8865 24.00 ? 3

GPSD,O=GGA 1271089248.000 0.005 50.605855000 7.030296667 189.500 12.000 29.900 ? ? 0.000 61.2879 24.00 ? 3

GPSD,O=GSA 1271089248.000 0.005 50.605855000 7.030296667 189.500 12.000 29.900 ? ? 0.000 61.2879 24.00 ? 3

GPSD,O=RMC 1271089248.000 0.005 50.605855000 7.030296667 189.500 12.000 29.900 344.0700 20.192 0.000 61.2879 24.00 ? 3

GPSD,O=GGA 1271089249.000 0.005 50.606040000 7.030215000 189.400 12.000 29.900 ? ? 0.000 58.5824 24.00 ? 3

GPSD,O=GSA 1271089249.000 0.005 50.606040000 7.030215000 189.400 12.000 29.900 ? ? 0.000 58.5824 24.00 ? 3

GPSD,O=RMC 1271089249.000 0.005 50.606040000 7.030215000 189.400 12.000 29.900 344.2600 21.185 0.000 58.5824 24.00 ? 3

GPSD,O=GGA 1271089250.000 0.005 50.606231667 7.030130000 189.300 12.000 29.900 ? ? 0.000 56.8521 24.00 ? 3

GPSD,O=GSA 1271089250.000 0.005 50.606231667 7.030130000 189.300 12.000 29.900 ? ? 0.000 56.8521 24.00 ? 3

GPSD,Y=GSV 1271089250.000 12:15 61 294 44 1:28 57 91 42 1:8 39 64 44 1:5 33 196 36 1:27 28 256 38 1:18 15 320 36 1:10 14 177 27 1:24 10 303 35 1:26 9 298 36 1:21 8 298 36 1:19 6 22 27 1:7 4 70 31 0:

GPSD,O=RMC 1271089250.000 0.005 50.606231667 7.030130000 189.300 12.000 29.900 344.0000 21.931 0.000 56.8521 24.00 ? 3

GPSD,O=GGA 1271089251.000 0.005 50.606430000 7.030043333 189.300 12.000 29.900 ? ? 0.000 55.2792 24.00 ? 3

GPSD,O=GSA 1271089251.000 0.005 50.606430000 7.030043333 189.300 12.000 29.900 ? ? 0.000 55.2792 24.00 ? 3

GPSD,O=RMC 1271089251.000 0.005 50.606430000 7.030043333 189.300 12.000 29.900 344.1200 22.697 0.000 55.2792 24.00 ? 3

GPSD,O=GGA 1271089252.000 0.005 50.606635000 7.029951667 189.300 12.000 29.900 ? ? 0.000 53.6578 24.00 ? 3

GPSD,O=GSA 1271089252.000 0.005 50.606635000 7.029951667 189.300 12.000 29.900 ? ? 0.000 53.6578 24.00 ? 3

GPSD,O=RMC 1271089252.000 0.005 50.606635000 7.029951667 189.300 12.000 29.900 344.1900 23.592 0.000 53.6578 24.00 ? 3

GPSD,O=GGA 1271089253.000 0.005 50.606846667 7.029858333 189.200 12.000 29.900 ? ? 0.000 52.2415 24.00 ? 3

GPSD,O=GSA 1271089253.000 0.005 50.606846667 7.029858333 189.200 12.000 29.900 ? ? 0.000 52.2415 24.00 ? 3

GPSD,O=RMC 1271089253.000 0.005 50.606846667 7.029858333 189.200 12.000 29.900 344.2000 24.529 0.000 52.2415 24.00 ? 3

GPSD,O=GGA 1271089254.000 0.005 50.607066667 7.029760000 189.200 12.000 29.900 ? ? 0.000 50.4697 24.00 ? 3

GPSD,O=GSA 1271089254.000 0.005 50.607066667 7.029760000 189.200 12.000 29.900 ? ? 0.000 50.4697 24.00 ? 3

GPSD,O=RMC 1271089254.000 0.005 50.607066667 7.029760000 189.200 12.000 29.900 344.0200 25.429 0.000 50.4697 24.00 ? 3

GPSD,O=GGA 1271089255.000 0.005 50.607293333 7.029658333 189.300 12.000 29.900 ? ? 0.000 49.1515 24.00 ? 3

GPSD,O=GSA 1271089255.000 0.005 50.607293333 7.029658333 189.300 12.000 29.900 ? ? 0.000 49.1515 24.00 ? 3

GPSD,Y=GSV 1271089255.000 12:15 61 294 43 1:28 57 91 43 1:8 39 64 44 1:5 33 196 36 1:27 28 256 38 1:18 15 320 34 1:10 14 177 27 1:24 10 303 30 1:26 9 298 32 1:21 8 298 36 1:19 6 22 32 1:7 4 70 28 0:

GPSD,O=RMC 1271089255.000 0.005 50.607293333 7.029658333 189.300 12.000 29.900 343.9200 26.165 0.000 49.1515 24.00 ? 3

GPSD,O=GGA 1271089256.000 0.005 50.607525000 7.029553333 189.300 12.000 29.900 ? ? 0.000 48.1791 24.00 ? 3

GPSD,O=GSA 1271089256.000 0.005 50.607525000 7.029553333 189.300 12.000 29.900 ? ? 0.000 48.1791 24.00 ? 3

GPSD,O=RMC 1271089256.000 0.005 50.607525000 7.029553333 189.300 12.000 29.900 344.0500 26.792 0.000 48.1791 24.00 ? 3

GPSD,O=GGA 1271089257.000 0.005 50.607756667 7.029448333 189.200 12.000 29.900 ? ? 0.000 48.1785 24.00 ? 3

GPSD,O=GSA 1271089257.000 0.005 50.607756667 7.029448333 189.200 12.000 29.900 ? ? 0.000 48.1785 24.00 ? 3

GPSD,O=RMC 1271089257.000 0.005 50.607756667 7.029448333 189.200 12.000 29.900 343.9100 26.406 0.000 48.1785 24.00 ? 3

GPSD,O=GGA 1271089258.000 0.005 50.607986667 7.029345000 189.200 12.000 29.900 ? ? 0.000 48.5179 24.00 ? 3

GPSD,O=GSA 1271089258.000 0.005 50.607986667 7.029345000 189.200 12.000 29.900 ? ? 0.000 48.5179 24.00 ? 3

GPSD,O=RMC 1271089258.000 0.005 50.607986667 7.029345000 189.200 12.000 29.900 344.0500 25.974 0.000 48.5179 24.00 ? 3

GPSD,O=GGA 1271089259.000 0.005 50.608213333 7.029241667 189.200 12.000 29.900 ? ? 0.000 49.0985 24.00 ? 3

GPSD,O=GSA 1271089259.000 0.005 50.608213333 7.029241667 189.200 12.000 29.900 ? ? 0.000 49.0985 24.00 ? 3

GPSD,O=RMC 1271089259.000 0.005 50.608213333 7.029241667 189.200 12.000 29.900 343.8400 26.159 0.000 49.0985 24.00 ? 3

GPSD,O=GGA 1271089260.000 0.005 50.608441667 7.029138333 189.200 12.000 29.900 ? ? 0.000 48.8066 24.00 ? 3

GPSD,O=GSA 1271089260.000 0.005 50.608441667 7.029138333 189.200 12.000 29.900 ? ? 0.000 48.8066 24.00 ? 3

GPSD,Y=GSV 1271089260.000 12:15 61 294 44 1:28 57 91 43 1:8 39 64 44 1:5 33 196 36 1:27 28 256 37 1:18 15 320 27 1:10 14 177 27 1:24 10 303 32 1:26 9 298 34 1:21 8 298 35 1:19 6 22 33 1:7 4 70 23 0:

GPSD,O=RMC 1271089260.000 0.005 50.608441667 7.029138333 189.200 12.000 29.900 344.0700 26.309 0.000 48.8066 24.00 ? 3

GPSD,O=GGA 1271089261.000 0.005 50.608671667 7.029035000 189.300 12.000 29.900 ? ? 0.000 48.5173 24.00 ? 3

GPSD,O=GSA 1271089261.000 0.005 50.608671667 7.029035000 189.300 12.000 29.900 ? ? 0.000 48.5173 24.00 ? 3

GPSD,O=RMC 1271089261.000 0.005 50.608671667 7.029035000 189.300 12.000 29.900 344.1600 26.653 0.000 48.5173 24.00 ? 3

GPSD,O=GGA 1271089262.000 0.005 50.608903333 7.028931667 189.000 12.000 29.900 ? ? 0.000 48.2315 24.00 ? 3

GPSD,O=GSA 1271089262.000 0.005 50.608903333 7.028931667 189.000 12.000 29.900 ? ? 0.000 48.2315 24.00 ? 3

GPSD,O=RMC 1271089262.000 0.005 50.608903333 7.028931667 189.000 12.000 29.900 344.0200 26.705 0.000 48.2315 24.00 ? 3

GPSD,O=GGA 1271089263.000 0.005 50.609135000 7.028826667 188.800 12.000 29.900 ? ? 0.000 48.1796 24.00 ? 3

GPSD,O=GSA 1271089263.000 0.005 50.609135000 7.028826667 188.800 12.000 29.900 ? ? 0.000 48.1796 24.00 ? 3

GPSD,O=RMC 1271089263.000 0.005 50.609135000 7.028826667 188.800 12.000 29.900 344.1200 26.653 0.000 48.1796 24.00 ? 3

GPSD,O=GGA 1271089264.000 0.005 50.609366667 7.028721667 188.400 12.000 29.900 ? ? 0.000 48.1791 24.00 ? 3

GPSD,O=GSA 1271089264.000 0.005 50.609366667 7.028721667 188.400 12.000 29.900 ? ? 0.000 48.1791 24.00 ? 3

GPSD,O=RMC 1271089264.000 0.005 50.609366667 7.028721667 188.400 12.000 29.900 344.0200 26.592 0.000 48.1791 24.00 ? 3

GPSD,O=GGA 1271089265.000 0.005 50.609596667 7.028616667 188.200 16.500 39.100 ? ? 0.000 63.5047 28.50 ? 3

GPSD,O=GSA 1271089265.000 0.005 50.609596667 7.028616667 188.200 16.500 39.100 ? ? 0.000 63.5047 28.50 ? 3

GPSD,Y=GSV 1271089265.000 12:15 61 294 44 1:28 57 91 43 1:8 39 64 44 1:5 33 196 34 1:27 28 256 37 1:18 15 320 37 1:10 14 177 0 0:24 10 303 35 1:26 9 298 38 1:21 8 298 38 1:19 6 22 34 1:7 4 70 29 0:

GPSD,O=RMC 1271089265.000 0.005 50.609596667 7.028616667 188.200 16.500 39.100 343.9400 26.458 0.000 63.5047 28.50 ? 3

GPSD,O=GGA 1271089266.000 0.005 50.609828333 7.028513333 187.900 16.500 39.100 ? ? 0.000 63.2251 33.00 ? 3

GPSD,O=GSA 1271089266.000 0.005 50.609828333 7.028513333 187.900 16.500 39.100 ? ? 0.000 63.2251 33.00 ? 3

GPSD,O=RMC 1271089266.000 0.005 50.609828333 7.028513333 187.900 16.500 39.100 344.1200 26.633 0.000 63.2251 33.00 ? 3

GPSD,O=GGA 1271089267.000 0.005 50.610060000 7.028408333 187.600 12.000 29.900 ? ? 0.000 48.1780 28.50 ? 3

GPSD,O=GSA 1271089267.000 0.005 50.610060000 7.028408333 187.600 12.000 29.900 ? ? 0.000 48.1780 28.50 ? 3

GPSD,O=RMC 1271089267.000 0.005 50.610060000 7.028408333 187.600 12.000 29.900 344.2400 26.638 0.000 48.1780 28.50 ? 3

GPSD,O=GGA 1271089268.000 0.005 50.610291667 7.028305000 187.300 12.000 29.900 ? ? 0.000 48.2297 24.00 ? 3

GPSD,O=GSA 1271089268.000 0.005 50.610291667 7.028305000 187.300 12.000 29.900 ? ? 0.000 48.2297 24.00 ? 3

GPSD,O=RMC 1271089268.000 0.005 50.610291667 7.028305000 187.300 12.000 29.900 344.2400 26.638 0.000 48.2297 24.00 ? 3

GPSD,O=GGA 1271089269.000 0.005 50.610523333 7.028201667 187.000 12.000 29.900 ? ? 0.000 48.2305 24.00 ? 3

GPSD,O=GSA 1271089269.000 0.005 50.610523333 7.028201667 187.000 12.000 29.900 ? ? 0.000 48.2305 24.00 ? 3

GPSD,O=RMC 1271089269.000 0.005 50.610523333 7.028201667 187.000 12.000 29.900 343.9700 26.736 0.000 48.2305 24.00 ? 3

GPSD,O=GGA 1271089270.000 0.005 50.610755000 7.028096667 186.600 12.000 29.900 ? ? 0.000 48.1785 24.00 ? 3

GPSD,O=GSA 1271089270.000 0.005 50.610755000 7.028096667 186.600 12.000 29.900 ? ? 0.000 48.1785 24.00 ? 3

GPSD,Y=GSV 1271089270.000 12:15 61 294 44 1:28 57 91 43 1:8 39 64 45 1:5 33 196 35 1:27 28 256 37 1:18 15 320 36 1:10 14 177 24 1:24 10 303 35 1:26 9 298 37 1:21 8 298 38 1:19 6 22 34 1:7 4 70 26 0:

GPSD,O=RMC 1271089270.000 0.005 50.610755000 7.028096667 186.600 12.000 29.900 343.9700 26.561 0.000 48.1785 24.00 ? 3

GPSD,O=GGA 1271089271.000 0.005 50.610983333 7.027993333 186.300 12.000 29.900 ? ? 0.000 48.8057 24.00 ? 3

GPSD,O=GSA 1271089271.000 0.005 50.610983333 7.027993333 186.300 12.000 29.900 ? ? 0.000 48.8057 24.00 ? 3

GPSD,O=RMC 1271089271.000 0.005 50.610983333 7.027993333 186.300 12.000 29.900 344.0600 26.021 0.000 48.8057 24.00 ? 3

GPSD,O=GGA 1271089272.000 0.005 50.611201667 7.027895000 186.100 12.000 29.900 ? ? 0.000 50.7815 24.00 ? 3

GPSD,O=GSA 1271089272.000 0.005 50.611201667 7.027895000 186.100 12.000 29.900 ? ? 0.000 50.7815 24.00 ? 3

GPSD,O=RMC 1271089272.000 0.005 50.611201667 7.027895000 186.100 12.000 29.900 344.4400 24.380 0.000 50.7815 24.00 ? 3

GPSD,O=GGA 1271089273.000 0.005 50.611403333 7.027806667 185.800 12.000 29.900 ? ? 0.000 54.4895 24.00 ? 3

GPSD,O=GSA 1271089273.000 0.005 50.611403333 7.027806667 185.800 12.000 29.900 ? ? 0.000 54.4895 24.00 ? 3

GPSD,O=RMC 1271089273.000 0.005 50.611403333 7.027806667 185.800 12.000 29.900 344.5900 22.111 0.000 54.4895 24.00 ? 3

GPSD,O=GGA 1271089274.000 0.005 50.611583333 7.027726667 185.500 12.000 29.900 ? ? 0.000 59.9088 24.00 ? 3

GPSD,O=GSA 1271089274.000 0.005 50.611583333 7.027726667 185.500 12.000 29.900 ? ? 0.000 59.9088 24.00 ? 3

GPSD,O=RMC 1271089274.000 0.005 50.611583333 7.027726667 185.500 12.000 29.900 344.3700 19.544 0.000 59.9088 24.00 ? 3

GPSD,O=GGA 1271089275.000 0.005 50.611740000 7.027656667 185.300 12.000 29.900 ? ? 0.000 66.9981 24.00 ? 3

GPSD,O=GSA 1271089275.000 0.005 50.611740000 7.027656667 185.300 12.000 29.900 ? ? 0.000 66.9981 24.00 ? 3

GPSD,Y=GSV 1271089275.000 12:15 61 294 44 1:28 57 91 43 1:8 39 64 44 1:5 33 196 34 1:27 28 256 37 1:18 15 320 36 1:10 14 177 27 1:24 10 303 35 1:26 9 298 37 1:21 8 298 38 1:19 6 22 33 1:7 4 70 16 0:

GPSD,O=RMC 1271089275.000 0.005 50.611740000 7.027656667 185.300 12.000 29.900 344.3200 16.843 0.000 66.9981 24.00 ? 3

GPSD,O=GGA 1271089276.000 0.005 50.611873333 7.027598333 185.000 12.000 29.900 ? ? 0.000 75.8282 24.00 ? 3

GPSD,O=GSA 1271089276.000 0.005 50.611873333 7.027598333 185.000 12.000 29.900 ? ? 0.000 75.8282 24.00 ? 3

GPSD,O=RMC 1271089276.000 0.005 50.611873333 7.027598333 185.000 12.000 29.900 344.8300 14.142 0.000 75.8282 24.00 ? 3

GPSD,O=GGA 1271089277.000 0.005 50.611981667 7.027551667 184.900 12.000 29.900 ? ? 0.000 87.6384 24.00 ? 3

GPSD,O=GSA 1271089277.000 0.005 50.611981667 7.027551667 184.900 12.000 29.900 ? ? 0.000 87.6384 24.00 ? 3

GPSD,O=RMC 1271089277.000 0.005 50.611981667 7.027551667 184.900 12.000 29.900 345.0800 11.241 0.000 87.6384 24.00 ? 3

GPSD,O=GGA 1271089278.000 0.005 50.612063333 7.027516667 184.700 12.000 29.900 ? ? 0.000 ? 24.00 ? 3

GPSD,O=GSA 1271089278.000 0.005 50.612063333 7.027516667 184.700 12.000 29.900 ? ? 0.000 ? 24.00 ? 3


finally, just incase its somehow relevant, the gpsd output:
gpsd: launching (Version 2.39)
gpsd: listening on port 2947
gpsd: successfully connected to the DBUS system bus
gpsd: running with effective group ID 0
gpsd: running with effective user ID 0
gpsd: opening read-only GPS data source at '/dev/rfcomm0'
gpsd: speed 9600, 8N1
gpsd: garmin_gps Linux USB module not active.
gpsd: no probe matched...
gpsd: gpsd_activate(1): opened GPS (5)
gpsd: switch_driver(Generic NMEA) called...
gpsd: selecting Generic NMEA driver...
gpsd: <= GPS: $GPGGA,162035.000,5036.2827,N,00701.8484,E,1,11,0.8,190.0,M,47.7,M,,0000*52

gpsd: can't use GGA time until after ZDA or RMC has supplied a year.
gpsd: GPGGA sets status 1 and mode 3 (changed)
gpsd: <= GPS: $GPGSA,A,3,27,24,28,08,15,18,10,21,05,19,26,,1.5,0.8,1.3*3B

gpsd: GPGSA sets mode 3
gpsd: <= GPS: $GPGSV,3,1,12,15,60,294,45,28,57,092,43,08,39,064,38,05,33,197,34*76

gpsd: Partial satellite data (1 of 3).
gpsd: <= GPS: $GPGSV,3,2,12,27,28,256,37,18,14,320,30,10,14,177,30,24,10,303,28*74

gpsd: Partial satellite data (2 of 3).
gpsd: client 127.0.0.1 (0) connect on fd 6
gpsd: checking client(0)
gpsd: <= client(0): r=1;
gpsd: client(0): assigning channel...
gpsd: User requires 2, channel 0 type is 1
gpsd: client(0): channel 5 already active.
gpsd: client(0) turned on raw mode
gpsd: => client(0): GPSD,R=1

gpsd: client 127.0.0.1 (1) connect on fd 7
gpsd: checking client(1)
gpsd: <= client(1): w=1;
gpsd: client(1): assigning channel...
gpsd: User requires 2, channel 0 type is 1
gpsd: client(1): channel 5 already active.
gpsd: => client(1): GPSD,W=1

gpsd: <= GPS: $GPGSV,3,3,12,26,09,297,37,21,08,299,36,19,06,022,36,07,04,070,33*7C

gpsd: Satellite data OK (3 of 3).
gpsd: => client(0): $GPGSV,3,3,12,26,09,297,37,21,08,299,36,19,06,022,36,07,04,070,33*7C

gpsd: client(1): channel 5 already active.
gpsd: => client(1): GPSD,Y=GSV 0.000 12:15 60 294 45 1:28 57 92 43 1:8 39 64 38 1:5 33 197 34 1:27 28 256 37 1:18 14 320 30 1:10 14 177 30 1:24 10 303 28 1:26 9 297 37 1:21 8 299 36 1:19 6 22 36 1:7 4 70 33 0:

gpsd: <= GPS: $GPRMC,162035.000,A,5036.2827,N,00701.8484,E,0.09,101.93,120410,0,,A*51

gpsd: GPRMC starts a reporting cycle.
gpsd: GPRMC sets mode 2
gpsd: DOPS computed/reported: H=0.796714/0.800000, V=1.283698/1.300000, P=1.510839/1.500000, T=0.692970/nan, G=1.662179/nan
gpsd: => client(0): $GPRMC,162035.000,A,5036.2827,N,00701.8484,E,0.09,101.93,120410,0,,A*51

gpsd: client(1): channel 5 already active.
gpsd: GPS has a fix (status=1, mode=2).
gpsd: => client(1): GPSD,O=RMC 1271089235.000 0.005 50.604711667 7.030806667 ? 12.000 ? 101.9300 0.046 ? ? ? ? 2

gpsd: <= GPS: $GPGGA,162036.000,5036.2827,N,00701.8484,E,1,11,0.8,190.0,M,47.7,M,,0000*51

gpsd: GPGGA starts a reporting cycle.
gpsd: GPGGA sets status 1 and mode 3 (changed)
gpsd: => client(0): $GPGGA,162036.000,5036.2827,N,00701.8484,E,1,11,0.8,190.0,M,47.7,M,,0000*51

gpsd: client(1): channel 5 already active.
gpsd: GPS has a fix (status=1, mode=3).
gpsd: => client(1): GPSD,O=GGA 1271089236.000 0.005 50.604711667 7.030806667 190.000 12.000 29.900 ? ? 0.000 ? 24.00 ? 3

gpsd: <= GPS: $GPGSA,A,3,27,24,28,08,15,18,10,21,05,19,26,,1.5,0.8,1.3*3B

gpsd: GPGSA sets mode 3
gpsd: => client(0): $GPGSA,A,3,27,24,28,08,15,18,10,21,05,19,26,,1.5,0.8,1.3*3B

gpsd: client(1): channel 5 already active.
gpsd: GPS has a fix (status=1, mode=3).
gpsd: => client(1): GPSD,O=GSA 1271089236.000 0.005 50.604711667 7.030806667 190.000 12.000 29.900 ? ? 0.000 ? 24.00 ? 3

gpsd: <= GPS: $GPRMC,162036.000,A,5036.2827,N,00701.8484,E,0.09,112.29,120410,0,,A*51

gpsd: GPRMC sets mode 2
gpsd: => client(0): $GPRMC,162036.000,A,5036.2827,N,00701.8484,E,0.09,112.29,120410,0,,A*51

gpsd: client(1): channel 5 already active.
gpsd: GPS has a fix (status=1, mode=3).
gpsd: => client(1): GPSD,O=RMC 1271089236.000 0.005 50.604711667 7.030806667 190.000 12.000 29.900 112.2900 0.046 0.000 ? 24.00 ? 3

gpsd: <= GPS: $GPGGA,162037.000,5036.2828,N,00701.8483,E,1,11,0.8,190.0,M,47.7,M,,0000*58

gpsd: GPGGA starts a reporting cycle.
gpsd: GPGGA sets status 1 and mode 3 (changed)
gpsd: => client(0): $GPGGA,162037.000,5036.2828,N,00701.8483,E,1,11,0.8,190.0,M,47.7,M,,0000*58

gpsd: client(1): channel 5 already active.
gpsd: GPS has a fix (status=1, mode=3).
gpsd: => client(1): GPSD,O=GGA 1271089237.000 0.005 50.604713333 7.030805000 190.000 12.000 29.900 ? ? 0.000 ? 24.00 ? 3

gpsd: <= GPS: $GPGSA,A,3,27,24,28,08,15,18,10,21,05,19,26,,1.5,0.8,1.3*3B

gpsd: GPGSA sets mode 3
gpsd: => client(0): $GPGSA,A,3,27,24,28,08,15,18,10,21,05,19,26,,1.5,0.8,1.3*3B

gpsd: client(1): channel 5 already active.
gpsd: GPS has a fix (status=1, mode=3).
gpsd: => client(1): GPSD,O=GSA 1271089237.000 0.005 50.604713333 7.030805000 190.000 12.000 29.900 ? ? 0.000 ? 24.00 ? 3

gpsd: <= GPS: $GPRMC,162037.000,A,5036.2828,N,00701.8483,E,0.94,340.08,120410,0,,A*5A

gpsd: GPRMC sets mode 2
gpsd: => client(0): $GPRMC,162037.000,A,5036.2828,N,00701.8483,E,0.94,340.08,120410,0,,A*5A

gpsd: client(1): channel 5 already active.
gpsd: GPS has a fix (status=1, mode=3).
gpsd: => client(1): GPSD,O=RMC 1271089237.000 0.005 50.604713333 7.030805000 190.000 12.000 29.900 340.0800 0.484 0.000 ? 24.00 ? 3

gpsd: <= GPS: $GPGGA,162038.000,5036.2837,N,00701.8479,E,1,11,0.8,190.0,M,47.7,M,,0000*5C

gpsd: GPGGA starts a reporting cycle.
gpsd: GPGGA sets status 1 and mode 3 (changed)
gpsd: => client(0): $GPGGA,162038.000,5036.2837,N,00701.8479,E,1,11,0.8,190.0,M,47.7,M,,0000*5C

gpsd: client(1): channel 5 already active.
gpsd: GPS has a fix (status=1, mode=3).
gpsd: => client(1): GPSD,O=GGA 1271089238.000 0.005 50.604728333 7.030798333 190.000 12.000 29.900 ? ? 0.000 ? 24.00 ? 3

gpsd: <= GPS: $GPGSA,A,3,27,24,28,08,15,18,10,21,05,19,26,,1.5,0.8,1.3*3B

gpsd: GPGSA sets mode 3
gpsd: => client(0): $GPGSA,A,3,27,24,28,08,15,18,10,21,05,19,26,,1.5,0.8,1.3*3B

gpsd: client(1): channel 5 already active.
gpsd: GPS has a fix (status=1, mode=3).
gpsd: => client(1): GPSD,O=GSA 1271089238.000 0.005 50.604728333 7.030798333 190.000 12.000 29.900 ? ? 0.000 ? 24.00 ? 3

gpsd: <= GPS: $GPRMC,162038.000,A,5036.2837,N,00701.8479,E,5.55,343.66,120410,0,,A*5D

gpsd: GPRMC sets mode 2
gpsd: => client(0): $GPRMC,162038.000,A,5036.2837,N,00701.8479,E,5.55,343.66,120410,0,,A*5D

gpsd: client(1): channel 5 already active.
gpsd: GPS has a fix (status=1, mode=3).
gpsd: => client(1): GPSD,O=RMC 1271089238.000 0.005 50.604728333 7.030798333 190.000 12.000 29.900 343.6600 2.855 0.000 ? 24.00 ? 3

gpsd: <= GPS: $GPGGA,162039.000,5036.2860,N,00701.8469,E,1,11,0.8,189.9,M,47.7,M,,0000*5F

gpsd: GPGGA starts a reporting cycle.
gpsd: GPGGA sets status 1 and mode 3 (changed)
gpsd: => client(0): $GPGGA,162039.000,5036.2860,N,00701.8469,E,1,11,0.8,189.9,M,47.7,M,,0000*5F

gpsd: client(1): channel 5 already active.
gpsd: GPS has a fix (status=1, mode=3).
gpsd: => client(1): GPSD,O=GGA 1271089239.000 0.005 50.604766667 7.030781667 189.900 12.000 29.900 ? ? 0.000 ? 24.00 ? 3

gpsd: <= GPS: $GPGSA,A,3,27,24,28,08,15,18,10,21,05,19,26,,1.5,0.8,1.3*3B

gpsd: GPGSA sets mode 3
gpsd: => client(0): $GPGSA,A,3,27,24,28,08,15,18,10,21,05,19,26,,1.5,0.8,1.3*3B

gpsd: client(1): channel 5 already active.
gpsd: GPS has a fix (status=1, mode=3).
gpsd: => client(1): GPSD,O=GSA 1271089239.000 0.005 50.604766667 7.030781667 189.900 12.000 29.900 ? ? 0.000 ? 24.00 ? 3

gpsd: <= GPS: $GPRMC,162039.000,A,5036.2860,N,00701.8469,E,10.71,343.77,120410,0,,A*6D

gpsd: GPRMC sets mode 2
gpsd: => client(0): $GPRMC,162039.000,A,5036.2860,N,00701.8469,E,10.71,343.77,120410,0,,A*6D

gpsd: client(1): channel 5 already active.
gpsd: GPS has a fix (status=1, mode=3).
gpsd: => client(1): GPSD,O=RMC 1271089239.000 0.005 50.604766667 7.030781667 189.900 12.000 29.900 343.7700 5.510 0.000 ? 24.00 ? 3

gpsd: <= GPS: $GPGGA,162040.000,5036.2895,N,00701.8453,E,1,11,0.8,189.9,M,47.7,M,,0000*52

gpsd: GPGGA starts a reporting cycle.
gpsd: GPGGA sets status 1 and mode 3 (changed)
gpsd: => client(0): $GPGGA,162040.000,5036.2895,N,00701.8453,E,1,11,0.8,189.9,M,47.7,M,,0000*52

gpsd: client(1): channel 5 already active.
gpsd: GPS has a fix (status=1, mode=3).
gpsd: => client(1): GPSD,O=GGA 1271089240.000 0.005 50.604825000 7.030755000 189.900 12.000 29.900 ? ? 0.000 ? 24.00 ? 3

gpsd: <= GPS: $GPGSA,A,3,27,24,28,08,15,18,10,21,05,19,26,,1.5,0.8,1.3*3B

gpsd: GPGSA sets mode 3
gpsd: => client(0): $GPGSA,A,3,27,24,28,08,15,18,10,21,05,19,26,,1.5,0.8,1.3*3B

gpsd: client(1): channel 5 already active.
gpsd: GPS has a fix (status=1, mode=3).
gpsd: => client(1): GPSD,O=GSA 1271089240.000 0.005 50.604825000 7.030755000 189.900 12.000 29.900 ? ? 0.000 ? 24.00 ? 3

gpsd: <= GPS: $GPGSV,3,1,12,15,60,294,44,28,57,092,42,08,39,064,44,05,33,197,34*7D

gpsd: Partial satellite data (1 of 3).
gpsd: => client(0): $GPGSV,3,1,12,15,60,294,44,28,57,092,42,08,39,064,44,05,33,197,34*7D

gpsd: <= GPS: $GPGSV,3,2,12,27,28,256,36,18,14,320,31,10,14,177,23,24,10,303,34*7B

gpsd: Partial satellite data (2 of 3).
gpsd: => client(0): $GPGSV,3,2,12,27,28,256,36,18,14,320,31,10,14,177,23,24,10,303,34*7B

gpsd: <= GPS: $GPGSV,3,3,12,26,09,297,36,21,08,299,36,19,06,022,32,07,04,070,30*7A

gpsd: Satellite data OK (3 of 3).
gpsd: => client(0): $GPGSV,3,3,12,26,09,297,36,21,08,299,36,19,06,022,32,07,04,070,30*7A

gpsd: client(1): channel 5 already active.
gpsd: => client(1): GPSD,Y=GSV 1271089240.000 12:15 60 294 44 1:28 57 92 42 1:8 39 64 44 1:5 33 197 34 1:27 28 256 36 1:18 14 320 31 1:10 14 177 23 1:24 10 303 34 1:26 9 297 36 1:21 8 299 36 1:19 6 22 32 1:7 4 70 30 0:

gpsd: <= GPS: $GPRMC,162040.000,A,5036.2895,N,00701.8453,E,14.33,344.25,120410,0,,A*62

gpsd: GPRMC sets mode 2
gpsd: DOPS computed/reported: H=0.796714/0.800000, V=1.283698/1.300000, P=1.510839/1.500000, T=0.692970/0.692970, G=1.662179/1.662179
gpsd: => client(0): $GPRMC,162040.000,A,5036.2895,N,00701.8453,E,14.33,344.25,120410,0,,A*62

gpsd: client(1): channel 5 already active.
gpsd: GPS has a fix (status=1, mode=3).
gpsd: => client(1): GPSD,O=RMC 1271089240.000 0.005 50.604825000 7.030755000 189.900 12.000 29.900 344.2500 7.372 0.000 ? 24.00 ? 3

gpsd: <= GPS: $GPGGA,162041.000,5036.2940,N,00701.8433,E,1,11,0.8,189.8,M,47.7,M,,0000*5D

gpsd: GPGGA starts a reporting cycle.
gpsd: GPGGA sets status 1 and mode 3 (changed)
gpsd: => client(0): $GPGGA,162041.000,5036.2940,N,00701.8433,E,1,11,0.8,189.8,M,47.7,M,,0000*5D

gpsd: client(1): channel 5 already active.
gpsd: GPS has a fix (status=1, mode=3).
gpsd: => client(1): GPSD,O=GGA 1271089241.000 0.005 50.604900000 7.030721667 189.800 12.000 29.900 ? ? 0.000 ? 24.00 ? 3

gpsd: <= GPS: $GPGSA,A,3,27,24,28,08,15,18,10,21,05,19,26,,1.5,0.8,1.3*3B

gpsd: GPGSA sets mode 3
gpsd: => client(0): $GPGSA,A,3,27,24,28,08,15,18,10,21,05,19,26,,1.5,0.8,1.3*3B

gpsd: client(1): channel 5 already active.
gpsd: GPS has a fix (status=1, mode=3).
gpsd: => client(1): GPSD,O=GSA 1271089241.000 0.005 50.604900000 7.030721667 189.800 12.000 29.900 ? ? 0.000 ? 24.00 ? 3

gpsd: <= GPS: $GPRMC,162041.000,A,5036.2940,N,00701.8433,E,18.42,343.89,120410,0,,A*67

gpsd: GPRMC sets mode 2
gpsd: => client(0): $GPRMC,162041.000,A,5036.2940,N,00701.8433,E,18.42,343.89,120410,0,,A*67

gpsd: client(1): channel 5 already active.
gpsd: GPS has a fix (status=1, mode=3).
gpsd: => client(1): GPSD,O=RMC 1271089241.000 0.005 50.604900000 7.030721667 189.800 12.000 29.900 343.8900 9.476 0.000 ? 24.00 ? 3

gpsd: <= GPS: $GPGGA,162042.000,5036.2996,N,00701.8408,E,1,11,0.8,189.6,M,47.7,M,,0000*53

gpsd: GPGGA starts a reporting cycle.
gpsd: GPGGA sets status 1 and mode 3 (changed)
gpsd: => client(0): $GPGGA,162042.000,5036.2996,N,00701.8408,E,1,11,0.8,189.6,M,47.7,M,,0000*53

gpsd: client(1): channel 5 already active.
gpsd: GPS has a fix (status=1, mode=3).
gpsd: => client(1): GPSD,O=GGA 1271089242.000 0.005 50.604993333 7.030680000 189.600 12.000 29.900 ? ? 0.000 ? 24.00 ? 3

gpsd: <= GPS: $GPGSA,A,3,27,24,28,08,15,18,10,21,05,19,26,,1.5,0.8,1.3*3B

gpsd: GPGSA sets mode 3
gpsd: => client(0): $GPGSA,A,3,27,24,28,08,15,18,10,21,05,19,26,,1.5,0.8,1.3*3B

gpsd: client(1): channel 5 already active.
gpsd: GPS has a fix (status=1, mode=3).
gpsd: => client(1): GPSD,O=GSA 1271089242.000 0.005 50.604993333 7.030680000 189.600 12.000 29.900 ? ? 0.000 ? 24.00 ? 3

gpsd: <= GPS: $GPRMC,162042.000,A,5036.2996,N,00701.8408,E,22.37,343.91,120410,0,,A*65

gpsd: GPRMC sets mode 2
gpsd: => client(0): $GPRMC,162042.000,A,5036.2996,N,00701.8408,E,22.37,343.91,120410,0,,A*65

gpsd: client(1): channel 5 already active.
gpsd: GPS has a fix (status=1, mode=3).
gpsd: => client(1): GPSD,O=RMC 1271089242.000 0.005 50.604993333 7.030680000 189.600 12.000 29.900 343.9100 11.508 0.000 ? 24.00 ? 3

gpsd: <= GPS: $GPGGA,162043.000,5036.3062,N,00701.8378,E,1,11,0.8,189.4,M,47.7,M,,0000*53

gpsd: GPGGA starts a reporting cycle.
gpsd: GPGGA sets status 1 and mode 3 (changed)
gpsd: => client(0): $GPGGA,162043.000,5036.3062,N,00701.8378,E,1,11,0.8,189.4,M,47.7,M,,0000*53

gpsd: client(1): channel 5 already active.
gpsd: GPS has a fix (status=1, mode=3).
gpsd: => client(1): GPSD,O=GGA 1271089243.000 0.005 50.605103333 7.030630000 189.400 12.000 29.900 ? ? 0.000 86.5504 24.00 ? 3

gpsd: <= GPS: $GPGSA,A,3,27,24,28,08,15,18,10,21,05,19,26,,1.5,0.8,1.3*3B

gpsd: GPGSA sets mode 3
gpsd: => client(0): $GPGSA,A,3,27,24,28,08,15,18,10,21,05,19,26,,1.5,0.8,1.3*3B

gpsd: client(1): channel 5 already active.
gpsd: GPS has a fix (status=1, mode=3).
gpsd: => client(1): GPSD,O=GSA 1271089243.000 0.005 50.605103333 7.030630000 189.400 12.000 29.900 ? ? 0.000 86.5504 24.00 ? 3

gpsd: <= GPS: $GPRMC,162043.000,A,5036.3062,N,00701.8378,E,26.28,343.95,120410,0,,A*69

gpsd: GPRMC sets mode 2
gpsd: => client(0): $GPRMC,162043.000,A,5036.3062,N,00701.8378,E,26.28,343.95,120410,0,,A*69

gpsd: client(1): channel 5 already active.
gpsd: GPS has a fix (status=1, mode=3).
gpsd: => client(1): GPSD,O=RMC 1271089243.000 0.005 50.605103333 7.030630000 189.400 12.000 29.900 343.9500 13.520 0.000 86.5504 24.00 ? 3

gpsd: <= GPS: $GPGGA,162044.000,5036.3137,N,00701.8345,E,1,11,0.8,189.3,M,47.7,M,,0000*5C

gpsd: GPGGA starts a reporting cycle.
gpsd: GPGGA sets status 1 and mode 3 (changed)
gpsd: => client(0): $GPGGA,162044.000,5036.3137,N,00701.8345,E,1,11,0.8,189.3,M,47.7,M,,0000*5C

gpsd: client(1): channel 5 already active.
gpsd: GPS has a fix (status=1, mode=3).
gpsd: => client(1): GPSD,O=GGA 1271089244.000 0.005 50.605228333 7.030575000 189.300 12.000 29.900 ? ? 0.000 79.4170 24.00 ? 3

gpsd: <= GPS: $GPGSA,A,3,27,24,28,08,15,18,10,21,05,19,26,,1.5,0.8,1.3*3B

gpsd: GPGSA sets mode 3
gpsd: => client(0): $GPGSA,A,3,27,24,28,08,15,18,10,21,05,19,26,,1.5,0.8,1.3*3B

gpsd: client(1): channel 5 already active.
gpsd: GPS has a fix (status=1, mode=3).
gpsd: => client(1): GPSD,O=GSA 1271089244.000 0.005 50.605228333 7.030575000 189.300 12.000 29.900 ? ? 0.000 79.4170 24.00 ? 3

gpsd: <= GPS: $GPRMC,162044.000,A,5036.3137,N,00701.8345,E,28.34,344.04,120410,0,,A*6D

gpsd: GPRMC sets mode 2
gpsd: => client(0): $GPRMC,162044.000,A,5036.3137,N,00701.8345,E,28.34,344.04,120410,0,,A*6D

gpsd: client(1): channel 5 already active.
gpsd: GPS has a fix (status=1, mode=3).
gpsd: => client(1): GPSD,O=RMC 1271089244.000 0.005 50.605228333 7.030575000 189.300 12.000 29.900 344.0400 14.579 0.000 79.4170 24.00 ? 3

gpsd: <= GPS: $GPGGA,162045.000,5036.3218,N,00701.8308,E,1,11,0.8,189.2,M,47.7,M,,0000*5B

gpsd: GPGGA starts a reporting cycle.
gpsd: GPGGA sets status 1 and mode 3 (changed)
gpsd: => client(0): $GPGGA,162045.000,5036.3218,N,00701.8308,E,1,11,0.8,189.2,M,47.7,M,,0000*5B

gpsd: client(1): channel 5 already active.
gpsd: GPS has a fix (status=1, mode=3).
gpsd: => client(1): GPSD,O=GGA 1271089245.000 0.005 50.605363333 7.030513333 189.200 12.000 29.900 ? ? 0.000 74.9623 24.00 ? 3

gpsd: <= GPS: $GPGSA,A,3,27,24,28,08,15,18,10,21,05,19,26,,1.5,0.8,1.3*3B

gpsd: GPGSA sets mode 3
gpsd: => client(0): $GPGSA,A,3,27,24,28,08,15,18,10,21,05,19,26,,1.5,0.8,1.3*3B

gpsd: client(1): channel 5 already active.
gpsd: GPS has a fix (status=1, mode=3).
gpsd: => client(1): GPSD,O=GSA 1271089245.000 0.005 50.605363333 7.030513333 189.200 12.000 29.900 ? ? 0.000 74.9623 24.00 ? 3

gpsd: <= GPS: $GPGSV,3,1,12,15,60,294,44,28,57,092,42,08,39,064,44,05,33,197,35*7C

gpsd: Partial satellite data (1 of 3).
gpsd: => client(0): $GPGSV,3,1,12,15,60,294,44,28,57,092,42,08,39,064,44,05,33,197,35*7C

gpsd: <= GPS: $GPGSV,3,2,12,27,28,256,37,18,14,320,36,10,14,177,24,24,10,303,35*7B

gpsd: Partial satellite data (2 of 3).
gpsd: => client(0): $GPGSV,3,2,12,27,28,256,37,18,14,320,36,10,14,177,24,24,10,303,35*7B

gpsd: <= GPS: $GPGSV,3,3,12,26,09,297,36,21,08,299,36,19,06,022,35,07,04,070,26*7A

gpsd: Satellite data OK (3 of 3).
gpsd: => client(0): $GPGSV,3,3,12,26,09,297,36,21,08,299,36,19,06,022,35,07,04,070,26*7A

gpsd: client(1): channel 5 already active.
gpsd: => client(1): GPSD,Y=GSV 1271089245.000 12:15 60 294 44 1:28 57 92 42 1:8 39 64 44 1:5 33 197 35 1:27 28 256 37 1:18 14 320 36 1:10 14 177 24 1:24 10 303 35 1:26 9 297 36 1:21 8 299 36 1:19 6 22 35 1:7 4 70 26 0:

gpsd: <= GPS: $GPRMC,162045.000,A,5036.3218,N,00701.8308,E,31.42,343.88,120410,0,,A*61

gpsd: GPRMC sets mode 2
gpsd: DOPS computed/reported: H=0.796714/0.800000, V=1.283698/1.300000, P=1.510839/1.500000, T=0.692970/0.692970, G=1.662179/1.662179
gpsd: => client(0): $GPRMC,162045.000,A,5036.3218,N,00701.8308,E,31.42,343.88,120410,0,,A*61

gpsd: client(1): channel 5 already active.
gpsd: GPS has a fix (status=1, mode=3).
gpsd: => client(1): GPSD,O=RMC 1271089245.000 0.005 50.605363333 7.030513333 189.200 12.000 29.900 343.8800 16.164 0.000 74.9623 24.00 ? 3

gpsd: <= GPS: $GPGGA,162046.000,5036.3310,N,00701.8268,E,1,11,0.8,189.5,M,47.7,M,,0000*51

gpsd: GPGGA starts a reporting cycle.
gpsd: GPGGA sets status 1 and mode 3 (changed)
gpsd: => client(0): $GPGGA,162046.000,5036.3310,N,00701.8268,E,1,11,0.8,189.5,M,47.7,M,,0000*51

gpsd: client(1): channel 5 already active.
gpsd: GPS has a fix (status=1, mode=3).
gpsd: => client(1): GPSD,O=GGA 1271089246.000 0.005 50.605516667 7.030446667 189.500 12.000 29.900 ? ? 0.000 68.2423 24.00 ? 3

gpsd: <= GPS: $GPGSA,A,3,27,24,28,08,15,18,10,21,05,19,26,,1.5,0.8,1.3*3B

gpsd: GPGSA sets mode 3
gpsd: => client(0): $GPGSA,A,3,27,24,28,08,15,18,10,21,05,19,26,,1.5,0.8,1.3*3B

gpsd: client(1): channel 5 already active.
gpsd: GPS has a fix (status=1, mode=3).
gpsd: => client(1): GPSD,O=GSA 1271089246.000 0.005 50.605516667 7.030446667 189.500 12.000 29.900 ? ? 0.000 68.2423 24.00 ? 3

gpsd: <= GPS: $GPRMC,162046.000,A,5036.3310,N,00701.8268,E,33.95,344.01,120410,0,,A*62

gpsd: GPRMC sets mode 2
gpsd: => client(0): $GPRMC,162046.000,A,5036.3310,N,00701.8268,E,33.95,344.01,120410,0,,A*62

gpsd: client(1): channel 5 already active.
gpsd: GPS has a fix (status=1, mode=3).
gpsd: => client(1): GPSD,O=RMC 1271089246.000 0.005 50.605516667 7.030446667 189.500 12.000 29.900 344.0100 17.465 0.000 68.2423 24.00 ? 3

gpsd: <= GPS: $GPGGA,162047.000,5036.3408,N,00701.8225,E,1,11,0.8,189.5,M,47.7,M,,0000*57

gpsd: GPGGA starts a reporting cycle.
gpsd: GPGGA sets status 1 and mode 3 (changed)
gpsd: => client(0): $GPGGA,162047.000,5036.3408,N,00701.8225,E,1,11,0.8,189.5,M,47.7,M,,0000*57

gpsd: client(1): channel 5 already active.
gpsd: GPS has a fix (status=1, mode=3).
gpsd: => client(1): GPSD,O=GGA 1271089247.000 0.005 50.605680000 7.030375000 189.500 12.000 29.900 ? ? 0.000 64.8865 24.00 ? 3

gpsd: <= GPS: $GPGSA,A,3,27,24,28,08,15,18,10,21,05,19,26,,1.5,0.8,1.3*3B

gpsd: GPGSA sets mode 3
gpsd: => client(0): $GPGSA,A,3,27,24,28,08,15,18,10,21,05,19,26,,1.5,0.8,1.3*3B

gpsd: client(1): channel 5 already active.
gpsd: GPS has a fix (status=1, mode=3).
gpsd: => client(1): GPSD,O=GSA 1271089247.000 0.005 50.605680000 7.030375000 189.500 12.000 29.900 ? ? 0.000 64.8865 24.00 ? 3

gpsd: <= GPS: $GPRMC,162047.000,A,5036.3408,N,00701.8225,E,36.75,344.10,120410,0,,A*6F

gpsd: GPRMC sets mode 2
gpsd: => client(0): $GPRMC,162047.000,A,5036.3408,N,00701.8225,E,36.75,344.10,120410,0,,A*6F

gpsd: client(1): channel 5 already active.
gpsd: GPS has a fix (status=1, mode=3).
gpsd: => client(1): GPSD,O=RMC 1271089247.000 0.005 50.605680000 7.030375000 189.500 12.000 29.900 344.1000 18.906 0.000 64.8865 24.00 ? 3

gpsd: <= GPS: $GPGGA,162048.000,5036.3513,N,00701.8178,E,1,11,0.8,189.5,M,47.7,M,,0000*58

gpsd: GPGGA starts a reporting cycle.
gpsd: GPGGA sets status 1 and mode 3 (changed)
gpsd: => client(0): $GPGGA,162048.000,5036.3513,N,00701.8178,E,1,11,0.8,189.5,M,47.7,M,,0000*58

gpsd: client(1): channel 5 already active.
gpsd: GPS has a fix (status=1, mode=3).
gpsd: => client(1): GPSD,O=GGA 1271089248.000 0.005 50.605855000 7.030296667 189.500 12.000 29.900 ? ? 0.000 61.2879 24.00 ? 3

gpsd: <= GPS: $GPGSA,A,3,27,24,28,08,15,18,10,21,05,19,26,,1.5,0.8,1.3*3B

gpsd: GPGSA sets mode 3
gpsd: => client(0): $GPGSA,A,3,27,24,28,08,15,18,10,21,05,19,26,,1.5,0.8,1.3*3B

gpsd: client(1): channel 5 already active.
gpsd: GPS has a fix (status=1, mode=3).
gpsd: => client(1): GPSD,O=GSA 1271089248.000 0.005 50.605855000 7.030296667 189.500 12.000 29.900 ? ? 0.000 61.2879 24.00 ? 3

gpsd: <= GPS: $GPRMC,162048.000,A,5036.3513,N,00701.8178,E,39.25,344.07,120410,0,,A*6C

gpsd: GPRMC sets mode 2
gpsd: => client(0): $GPRMC,162048.000,A,5036.3513,N,00701.8178,E,39.25,344.07,120410,0,,A*6C

gpsd: client(1): channel 5 already active.
gpsd: GPS has a fix (status=1, mode=3).
gpsd: => client(1): GPSD,O=RMC 1271089248.000 0.005 50.605855000 7.030296667 189.500 12.000 29.900 344.0700 20.192 0.000 61.2879 24.00 ? 3

gpsd: <= GPS: $GPGGA,162049.000,5036.3624,N,00701.8129,E,1,11,0.8,189.4,M,47.7,M,,0000*5B

gpsd: GPGGA starts a reporting cycle.
gpsd: GPGGA sets status 1 and mode 3 (changed)
gpsd: => client(0): $GPGGA,162049.000,5036.3624,N,00701.8129,E,1,11,0.8,189.4,M,47.7,M,,0000*5B

gpsd: client(1): channel 5 already active.
gpsd: GPS has a fix (status=1, mode=3).
gpsd: => client(1): GPSD,O=GGA 1271089249.000 0.005 50.606040000 7.030215000 189.400 12.000 29.900 ? ? 0.000 58.5824 24.00 ? 3

gpsd: <= GPS: $GPGSA,A,3,27,24,28,08,15,18,10,21,05,19,26,,1.5,0.8,1.3*3B

gpsd: GPGSA sets mode 3
gpsd: => client(0): $GPGSA,A,3,27,24,28,08,15,18,10,21,05,19,26,,1.5,0.8,1.3*3B

gpsd: client(1): channel 5 already active.
gpsd: GPS has a fix (status=1, mode=3).
gpsd: => client(1): GPSD,O=GSA 1271089249.000 0.005 50.606040000 7.030215000 189.400 12.000 29.900 ? ? 0.000 58.5824 24.00 ? 3

gpsd: <= GPS: $GPRMC,162049.000,A,5036.3624,N,00701.8129,E,41.18,344.26,120410,0,,A*6C

gpsd: GPRMC sets mode 2
gpsd: => client(0): $GPRMC,162049.000,A,5036.3624,N,00701.8129,E,41.18,344.26,120410,0,,A*6C

gpsd: client(1): channel 5 already active.
gpsd: GPS has a fix (status=1, mode=3).
gpsd: => client(1): GPSD,O=RMC 1271089249.000 0.005 50.606040000 7.030215000 189.400 12.000 29.900 344.2600 21.185 0.000 58.5824 24.00 ? 3

gpsd: <= GPS: $GPGGA,162050.000,5036.3739,N,00701.8078,E,1,11,0.8,189.3,M,47.7,M,,0000*5C

gpsd: GPGGA starts a reporting cycle.
gpsd: GPGGA sets status 1 and mode 3 (changed)
gpsd: => client(0): $GPGGA,162050.000,5036.3739,N,00701.8078,E,1,11,0.8,189.3,M,47.7,M,,0000*5C

gpsd: client(1): channel 5 already active.
gpsd: GPS has a fix (status=1, mode=3).
gpsd: => client(1): GPSD,O=GGA 1271089250.000 0.005 50.606231667 7.030130000 189.300 12.000 29.900 ? ? 0.000 56.8521 24.00 ? 3

gpsd: <= GPS: $GPGSA,A,3,27,24,28,08,15,18,10,21,05,19,26,,1.5,0.8,1.3*3B

gpsd: GPGSA sets mode 3
gpsd: => client(0): $GPGSA,A,3,27,24,28,08,15,18,10,21,05,19,26,,1.5,0.8,1.3*3B

gpsd: client(1): channel 5 already active.
gpsd: GPS has a fix (status=1, mode=3).
gpsd: => client(1): GPSD,O=GSA 1271089250.000 0.005 50.606231667 7.030130000 189.300 12.000 29.900 ? ? 0.000 56.8521 24.00 ? 3

gpsd: <= GPS: $GPGSV,3,1,12,15,61,294,44,28,57,091,42,08,39,064,44,05,33,196,36*7C

gpsd: Partial satellite data (1 of 3).
gpsd: => client(0): $GPGSV,3,1,12,15,61,294,44,28,57,091,42,08,39,064,44,05,33,196,36*7C

gpsd: <= GPS: $GPGSV,3,2,12,27,28,256,38,18,15,320,36,10,14,177,27,24,10,303,35*76

gpsd: Partial satellite data (2 of 3).
gpsd: => client(0): $GPGSV,3,2,12,27,28,256,38,18,15,320,36,10,14,177,27,24,10,303,35*76

gpsd: <= GPS: $GPGSV,3,3,12,26,09,298,36,21,08,298,36,19,06,022,27,07,04,070,31*71

gpsd: Satellite data OK (3 of 3).
gpsd: => client(0): $GPGSV,3,3,12,26,09,298,36,21,08,298,36,19,06,022,27,07,04,070,31*71

gpsd: client(1): channel 5 already active.
gpsd: => client(1): GPSD,Y=GSV 1271089250.000 12:15 61 294 44 1:28 57 91 42 1:8 39 64 44 1:5 33 196 36 1:27 28 256 38 1:18 15 320 36 1:10 14 177 27 1:24 10 303 35 1:26 9 298 36 1:21 8 298 36 1:19 6 22 27 1:7 4 70 31 0:

gpsd: <= GPS: $GPRMC,162050.000,A,5036.3739,N,00701.8078,E,42.63,344.00,120410,0,,A*67

gpsd: GPRMC sets mode 2
gpsd: DOPS computed/reported: H=0.795962/0.800000, V=1.277883/1.300000, P=1.505504/1.500000, T=0.691977/0.692970, G=1.656917/1.662179
gpsd: => client(0): $GPRMC,162050.000,A,5036.3739,N,00701.8078,E,42.63,344.00,120410,0,,A*67

gpsd: client(1): channel 5 already active.
gpsd: GPS has a fix (status=1, mode=3).
gpsd: => client(1): GPSD,O=RMC 1271089250.000 0.005 50.606231667 7.030130000 189.300 12.000 29.900 344.0000 21.931 0.000 56.8521 24.00 ? 3

gpsd: <= GPS: $GPGGA,162051.000,5036.3858,N,00701.8026,E,1,11,0.8,189.3,M,47.7,M,,0000*5E

gpsd: GPGGA starts a reporting cycle.
gpsd: GPGGA sets status 1 and mode 3 (changed)
gpsd: => client(0): $GPGGA,162051.000,5036.3858,N,00701.8026,E,1,11,0.8,189.3,M,47.7,M,,0000*5E

gpsd: client(1): channel 5 already active.
gpsd: GPS has a fix (status=1, mode=3).
gpsd: => client(1): GPSD,O=GGA 1271089251.000 0.005 50.606430000 7.030043333 189.300 12.000 29.900 ? ? 0.000 55.2792 24.00 ? 3

gpsd: <= GPS: $GPGSA,A,3,27,24,28,08,15,18,10,21,05,19,26,,1.5,0.8,1.3*3B

gpsd: GPGSA sets mode 3
gpsd: => client(0): $GPGSA,A,3,27,24,28,08,15,18,10,21,05,19,26,,1.5,0.8,1.3*3B

gpsd: client(1): channel 5 already active.
gpsd: GPS has a fix (status=1, mode=3).
gpsd: => client(1): GPSD,O=GSA 1271089251.000 0.005 50.606430000 7.030043333 189.300 12.000 29.900 ? ? 0.000 55.2792 24.00 ? 3

gpsd: <= GPS: $GPRMC,162051.000,A,5036.3858,N,00701.8026,E,44.12,344.12,120410,0,,A*66

gpsd: GPRMC sets mode 2
gpsd: => client(0): $GPRMC,162051.000,A,5036.3858,N,00701.8026,E,44.12,344.12,120410,0,,A*66

gpsd: client(1): channel 5 already active.
gpsd: GPS has a fix (status=1, mode=3).
gpsd: => client(1): GPSD,O=RMC 1271089251.000 0.005 50.606430000 7.030043333 189.300 12.000 29.900 344.1200 22.697 0.000 55.2792 24.00 ? 3

gpsd: <= GPS: $GPGGA,162052.000,5036.3981,N,00701.7971,E,1,11,0.8,189.3,M,47.7,M,,0000*5C

gpsd: GPGGA starts a reporting cycle.
gpsd: GPGGA sets status 1 and mode 3 (changed)
gpsd: => client(0): $GPGGA,162052.000,5036.3981,N,00701.7971,E,1,11,0.8,189.3,M,47.7,M,,0000*5C

gpsd: client(1): channel 5 already active.
gpsd: GPS has a fix (status=1, mode=3).
gpsd: => client(1): GPSD,O=GGA 1271089252.000 0.005 50.606635000 7.029951667 189.300 12.000 29.900 ? ? 0.000 53.6578 24.00 ? 3

gpsd: <= GPS: $GPGSA,A,3,27,24,28,08,15,18,10,21,05,19,26,,1.5,0.8,1.3*3B

gpsd: GPGSA sets mode 3
gpsd: => client(0): $GPGSA,A,3,27,24,28,08,15,18,10,21,05,19,26,,1.5,0.8,1.3*3B

gpsd: client(1): channel 5 already active.
gpsd: GPS has a fix (status=1, mode=3).
gpsd: => client(1): GPSD,O=GSA 1271089252.000 0.005 50.606635000 7.029951667 189.300 12.000 29.900 ? ? 0.000 53.6578 24.00 ? 3

gpsd: <= GPS: $GPRMC,162052.000,A,5036.3981,N,00701.7971,E,45.86,344.19,120410,0,,A*63

gpsd: GPRMC sets mode 2
gpsd: => client(0): $GPRMC,162052.000,A,5036.3981,N,00701.7971,E,45.86,344.19,120410,0,,A*63

gpsd: client(1): channel 5 already active.
gpsd: GPS has a fix (status=1, mode=3).
gpsd: => client(1): GPSD,O=RMC 1271089252.000 0.005 50.606635000 7.029951667 189.300 12.000 29.900 344.1900 23.592 0.000 53.6578 24.00 ? 3

gpsd: <= GPS: $GPGGA,162053.000,5036.4108,N,00701.7915,E,1,11,0.8,189.2,M,47.7,M,,0000*50

gpsd: GPGGA starts a reporting cycle.
gpsd: GPGGA sets status 1 and mode 3 (changed)
gpsd: => client(0): $GPGGA,162053.000,5036.4108,N,00701.7915,E,1,11,0.8,189.2,M,47.7,M,,0000*50

gpsd: client(1): channel 5 already active.
gpsd: GPS has a fix (status=1, mode=3).
gpsd: => client(1): GPSD,O=GGA 1271089253.000 0.005 50.606846667 7.029858333 189.200 12.000 29.900 ? ? 0.000 52.2415 24.00 ? 3

gpsd: <= GPS: $GPGSA,A,3,27,24,28,08,15,18,10,21,05,19,26,,1.5,0.8,1.3*3B

gpsd: GPGSA sets mode 3
gpsd: => client(0): $GPGSA,A,3,27,24,28,08,15,18,10,21,05,19,26,,1.5,0.8,1.3*3B

gpsd: client(1): channel 5 already active.
gpsd: GPS has a fix (status=1, mode=3).
gpsd: => client(1): GPSD,O=GSA 1271089253.000 0.005 50.606846667 7.029858333 189.200 12.000 29.900 ? ? 0.000 52.2415 24.00 ? 3

gpsd: <= GPS: $GPRMC,162053.000,A,5036.4108,N,00701.7915,E,47.68,344.20,120410,0,,A*66

gpsd: GPRMC sets mode 2
gpsd: => client(0): $GPRMC,162053.000,A,5036.4108,N,00701.7915,E,47.68,344.20,120410,0,,A*66

gpsd: client(1): channel 5 already active.
gpsd: GPS has a fix (status=1, mode=3).
gpsd: => client(1): GPSD,O=RMC 1271089253.000 0.005 50.606846667 7.029858333 189.200 12.000 29.900 344.2000 24.529 0.000 52.2415 24.00 ? 3

gpsd: <= GPS: $GPGGA,162054.000,5036.4240,N,00701.7856,E,1,11,0.8,189.2,M,47.7,M,,0000*5E

gpsd: GPGGA starts a reporting cycle.
gpsd: GPGGA sets status 1 and mode 3 (changed)
gpsd: => client(0): $GPGGA,162054.000,5036.4240,N,00701.7856,E,1,11,0.8,189.2,M,47.7,M,,0000*5E

gpsd: client(1): channel 5 already active.
gpsd: GPS has a fix (status=1, mode=3).
gpsd: => client(1): GPSD,O=GGA 1271089254.000 0.005 50.607066667 7.029760000 189.200 12.000 29.900 ? ? 0.000 50.4697 24.00 ? 3

gpsd: <= GPS: $GPGSA,A,3,27,24,28,08,15,18,10,21,05,19,26,,1.5,0.8,1.3*3B

gpsd: GPGSA sets mode 3
gpsd: => client(0): $GPGSA,A,3,27,24,28,08,15,18,10,21,05,19,26,,1.5,0.8,1.3*3B

gpsd: client(1): channel 5 already active.
gpsd: GPS has a fix (status=1, mode=3).
gpsd: => client(1): GPSD,O=GSA 1271089254.000 0.005 50.607066667 7.029760000 189.200 12.000 29.900 ? ? 0.000 50.4697 24.00 ? 3

gpsd: <= GPS: $GPRMC,162054.000,A,5036.4240,N,00701.7856,E,49.43,344.02,120410,0,,A*6F

gpsd: GPRMC sets mode 2
gpsd: => client(0): $GPRMC,162054.000,A,5036.4240,N,00701.7856,E,49.43,344.02,120410,0,,A*6F

gpsd: client(1): channel 5 already active.
gpsd: GPS has a fix (status=1, mode=3).
gpsd: => client(1): GPSD,O=RMC 1271089254.000 0.005 50.607066667 7.029760000 189.200 12.000 29.900 344.0200 25.429 0.000 50.4697 24.00 ? 3

gpsd: <= GPS: $GPGGA,162055.000,5036.4376,N,00701.7795,E,1,11,0.8,189.3,M,47.7,M,,0000*5A

gpsd: GPGGA starts a reporting cycle.
gpsd: GPGGA sets status 1 and mode 3 (changed)
gpsd: => client(0): $GPGGA,162055.000,5036.4376,N,00701.7795,E,1,11,0.8,189.3,M,47.7,M,,0000*5A

gpsd: client(1): channel 5 already active.
gpsd: GPS has a fix (status=1, mode=3).
gpsd: => client(1): GPSD,O=GGA 1271089255.000 0.005 50.607293333 7.029658333 189.300 12.000 29.900 ? ? 0.000 49.1515 24.00 ? 3

gpsd: <= GPS: $GPGSA,A,3,27,24,28,08,15,18,10,21,05,19,26,,1.5,0.8,1.3*3B

gpsd: GPGSA sets mode 3
gpsd: => client(0): $GPGSA,A,3,27,24,28,08,15,18,10,21,05,19,26,,1.5,0.8,1.3*3B

gpsd: client(1): channel 5 already active.
gpsd: GPS has a fix (status=1, mode=3).
gpsd: => client(1): GPSD,O=GSA 1271089255.000 0.005 50.607293333 7.029658333 189.300 12.000 29.900 ? ? 0.000 49.1515 24.00 ? 3

gpsd: <= GPS: $GPGSV,3,1,12,15,61,294,43,28,57,091,43,08,39,064,44,05,33,196,36*7A

gpsd: Partial satellite data (1 of 3).
gpsd: => client(0): $GPGSV,3,1,12,15,61,294,43,28,57,091,43,08,39,064,44,05,33,196,36*7A

gpsd: <= GPS: $GPGSV,3,2,12,27,28,256,38,18,15,320,34,10,14,177,27,24,10,303,30*71

gpsd: Partial satellite data (2 of 3).
gpsd: => client(0): $GPGSV,3,2,12,27,28,256,38,18,15,320,34,10,14,177,27,24,10,303,30*71

gpsd: <= GPS: $GPGSV,3,3,12,26,09,298,32,21,08,298,36,19,06,022,32,07,04,070,28*79

gpsd: Satellite data OK (3 of 3).
gpsd: => client(0): $GPGSV,3,3,12,26,09,298,32,21,08,298,36,19,06,022,32,07,04,070,28*79

gpsd: client(1): channel 5 already active.
gpsd: => client(1): GPSD,Y=GSV 1271089255.000 12:15 61 294 43 1:28 57 91 43 1:8 39 64 44 1:5 33 196 36 1:27 28 256 38 1:18 15 320 34 1:10 14 177 27 1:24 10 303 30 1:26 9 298 32 1:21 8 298 36 1:19 6 22 32 1:7 4 70 28 0:

gpsd: <= GPS: $GPRMC,162055.000,A,5036.4376,N,00701.7795,E,50.86,343.92,120410,0,,A*65

gpsd: GPRMC sets mode 2
gpsd: DOPS computed/reported: H=0.795962/0.800000, V=1.277883/1.300000, P=1.505504/1.500000, T=0.691977/0.692970, G=1.656917/1.662179
gpsd: => client(0): $GPRMC,162055.000,A,5036.4376,N,00701.7795,E,50.86,343.92,120410,0,,A*65

gpsd: client(1): channel 5 already active.
gpsd: GPS has a fix (status=1, mode=3).
gpsd: => client(1): GPSD,O=RMC 1271089255.000 0.005 50.607293333 7.029658333 189.300 12.000 29.900 343.9200 26.165 0.000 49.1515 24.00 ? 3

gpsd: <= GPS: $GPGGA,162056.000,5036.4515,N,00701.7732,E,1,11,0.8,189.3,M,47.7,M,,0000*57

gpsd: GPGGA starts a reporting cycle.
gpsd: GPGGA sets status 1 and mode 3 (changed)
gpsd: => client(0): $GPGGA,162056.000,5036.4515,N,00701.7732,E,1,11,0.8,189.3,M,47.7,M,,0000*57

gpsd: client(1): channel 5 already active.
gpsd: GPS has a fix (status=1, mode=3).
gpsd: => client(1): GPSD,O=GGA 1271089256.000 0.005 50.607525000 7.029553333 189.300 12.000 29.900 ? ? 0.000 48.1791 24.00 ? 3

gpsd: <= GPS: $GPGSA,A,3,27,24,28,08,15,18,10,21,05,19,26,,1.5,0.8,1.3*3B

gpsd: GPGSA sets mode 3
gpsd: => client(0): $GPGSA,A,3,27,24,28,08,15,18,10,21,05,19,26,,1.5,0.8,1.3*3B

gpsd: client(1): channel 5 already active.
gpsd: GPS has a fix (status=1, mode=3).
gpsd: => client(1): GPSD,O=GSA 1271089256.000 0.005 50.607525000 7.029553333 189.300 12.000 29.900 ? ? 0.000 48.1791 24.00 ? 3

gpsd: <= GPS: $GPRMC,162056.000,A,5036.4515,N,00701.7732,E,52.08,344.05,120410,0,,A*65

gpsd: GPRMC sets mode 2
gpsd: => client(0): $GPRMC,162056.000,A,5036.4515,N,00701.7732,E,52.08,344.05,120410,0,,A*65

gpsd: client(1): channel 5 already active.
gpsd: GPS has a fix (status=1, mode=3).
gpsd: => client(1): GPSD,O=RMC 1271089256.000 0.005 50.607525000 7.029553333 189.300 12.000 29.900 344.0500 26.792 0.000 48.1791 24.00 ? 3

gpsd: <= GPS: $GPGGA,162057.000,5036.4654,N,00701.7669,E,1,11,0.8,189.2,M,47.7,M,,0000*5E

gpsd: GPGGA starts a reporting cycle.
gpsd: GPGGA sets status 1 and mode 3 (changed)
gpsd: => client(0): $GPGGA,162057.000,5036.4654,N,00701.7669,E,1,11,0.8,189.2,M,47.7,M,,0000*5E

gpsd: client(1): channel 5 already active.
gpsd: GPS has a fix (status=1, mode=3).
gpsd: => client(1): GPSD,O=GGA 1271089257.000 0.005 50.607756667 7.029448333 189.200 12.000 29.900 ? ? 0.000 48.1785 24.00 ? 3

gpsd: <= GPS: $GPGSA,A,3,27,24,28,08,15,18,10,21,05,19,26,,1.5,0.8,1.3*3B

gpsd: GPGSA sets mode 3
gpsd: => client(0): $GPGSA,A,3,27,24,28,08,15,18,10,21,05,19,26,,1.5,0.8,1.3*3B

gpsd: client(1): channel 5 already active.
gpsd: GPS has a fix (status=1, mode=3).
gpsd: => client(1): GPSD,O=GSA 1271089257.000 0.005 50.607756667 7.029448333 189.200 12.000 29.900 ? ? 0.000 48.1785 24.00 ? 3

gpsd: <= GPS: $GPRMC,162057.000,A,5036.4654,N,00701.7669,E,51.33,343.91,120410,0,,A*6C

gpsd: GPRMC sets mode 2
gpsd: => client(0): $GPRMC,162057.000,A,5036.4654,N,00701.7669,E,51.33,343.91,120410,0,,A*6C

gpsd: client(1): channel 5 already active.
gpsd: GPS has a fix (status=1, mode=3).
gpsd: => client(1): GPSD,O=RMC 1271089257.000 0.005 50.607756667 7.029448333 189.200 12.000 29.900 343.9100 26.406 0.000 48.1785 24.00 ? 3

gpsd: <= GPS: $GPGGA,162058.000,5036.4792,N,00701.7607,E,1,11,0.8,189.2,M,47.7,M,,0000*52

gpsd: GPGGA starts a reporting cycle.
gpsd: GPGGA sets status 1 and mode 3 (changed)
gpsd: => client(0): $GPGGA,162058.000,5036.4792,N,00701.7607,E,1,11,0.8,189.2,M,47.7,M,,0000*52

gpsd: client(1): channel 5 already active.
gpsd: GPS has a fix (status=1, mode=3).
gpsd: => client(1): GPSD,O=GGA 1271089258.000 0.005 50.607986667 7.029345000 189.200 12.000 29.900 ? ? 0.000 48.5179 24.00 ? 3

gpsd: <= GPS: $GPGSA,A,3,27,24,28,08,15,18,10,21,05,19,26,,1.5,0.8,1.3*3B

gpsd: GPGSA sets mode 3
gpsd: => client(0): $GPGSA,A,3,27,24,28,08,15,18,10,21,05,19,26,,1.5,0.8,1.3*3B

gpsd: client(1): channel 5 already active.
gpsd: GPS has a fix (status=1, mode=3).
gpsd: => client(1): GPSD,O=GSA 1271089258.000 0.005 50.607986667 7.029345000 189.200 12.000 29.900 ? ? 0.000 48.5179 24.00 ? 3

gpsd: <= GPS: $GPRMC,162058.000,A,5036.4792,N,00701.7607,E,50.49,344.05,120410,0,,A*66

gpsd: GPRMC sets mode 2
gpsd: => client(0): $GPRMC,162058.000,A,5036.4792,N,00701.7607,E,50.49,344.05,120410,0,,A*66

gpsd: client(1): channel 5 already active.
gpsd: GPS has a fix (status=1, mode=3).
gpsd: => client(1): GPSD,O=RMC 1271089258.000 0.005 50.607986667 7.029345000 189.200 12.000 29.900 344.0500 25.974 0.000 48.5179 24.00 ? 3

gpsd: <= GPS: $GPGGA,162059.000,5036.4928,N,00701.7545,E,1,11,0.8,189.2,M,47.7,M,,0000*59

gpsd: GPGGA starts a reporting cycle.
gpsd: GPGGA sets status 1 and mode 3 (changed)
gpsd: => client(0): $GPGGA,162059.000,5036.4928,N,00701.7545,E,1,11,0.8,189.2,M,47.7,M,,0000*59

gpsd: client(1): channel 5 already active.
gpsd: GPS has a fix (status=1, mode=3).
gpsd: => client(1): GPSD,O=GGA 1271089259.000 0.005 50.608213333 7.029241667 189.200 12.000 29.900 ? ? 0.000 49.0985 24.00 ? 3

gpsd: <= GPS: $GPGSA,A,3,27,24,28,08,15,18,10,21,05,19,26,,1.5,0.8,1.3*3B

gpsd: GPGSA sets mode 3
gpsd: => client(0): $GPGSA,A,3,27,24,28,08,15,18,10,21,05,19,26,,1.5,0.8,1.3*3B

gpsd: client(1): channel 5 already active.
gpsd: GPS has a fix (status=1, mode=3).
gpsd: => client(1): GPSD,O=GSA 1271089259.000 0.005 50.608213333 7.029241667 189.200 12.000 29.900 ? ? 0.000 49.0985 24.00 ? 3

gpsd: <= GPS: $GPRMC,162059.000,A,5036.4928,N,00701.7545,E,50.85,343.84,120410,0,,A*63

gpsd: GPRMC sets mode 2
gpsd: => client(0): $GPRMC,162059.000,A,5036.4928,N,00701.7545,E,50.85,343.84,120410,0,,A*63

gpsd: client(1): channel 5 already active.
gpsd: GPS has a fix (status=1, mode=3).
gpsd: => client(1): GPSD,O=RMC 1271089259.000 0.005 50.608213333 7.029241667 189.200 12.000 29.900 343.8400 26.159 0.000 49.0985 24.00 ? 3

gpsd: <= GPS: $GPGGA,162100.000,5036.5065,N,00701.7483,E,1,11,0.8,189.2,M,47.7,M,,0000*5E

gpsd: GPGGA starts a reporting cycle.
gpsd: GPGGA sets status 1 and mode 3 (changed)
gpsd: => client(0): $GPGGA,162100.000,5036.5065,N,00701.7483,E,1,11,0.8,189.2,M,47.7,M,,0000*5E

gpsd: client(1): channel 5 already active.
gpsd: GPS has a fix (status=1, mode=3).
gpsd: => client(1): GPSD,O=GGA 1271089260.000 0.005 50.608441667 7.029138333 189.200 12.000 29.900 ? ? 0.000 48.8066 24.00 ? 3

gpsd: <= GPS: $GPGSA,A,3,27,24,28,08,15,18,10,21,05,19,26,,1.5,0.8,1.3*3B

gpsd: GPGSA sets mode 3
gpsd: => client(0): $GPGSA,A,3,27,24,28,08,15,18,10,21,05,19,26,,1.5,0.8,1.3*3B

gpsd: client(1): channel 5 already active.
gpsd: GPS has a fix (status=1, mode=3).
gpsd: => client(1): GPSD,O=GSA 1271089260.000 0.005 50.608441667 7.029138333 189.200 12.000 29.900 ? ? 0.000 48.8066 24.00 ? 3

gpsd: <= GPS: $GPGSV,3,1,12,15,61,294,44,28,57,091,43,08,39,064,44,05,33,196,36*7D

gpsd: Partial satellite data (1 of 3).
gpsd: => client(0): $GPGSV,3,1,12,15,61,294,44,28,57,091,43,08,39,064,44,05,33,196,36*7D

gpsd: <= GPS: $GPGSV,3,2,12,27,28,256,37,18,15,320,27,10,14,177,27,24,10,303,32*7E

gpsd: Partial satellite data (2 of 3).
gpsd: => client(0): $GPGSV,3,2,12,27,28,256,37,18,15,320,27,10,14,177,27,24,10,303,32*7E

gpsd: <= GPS: $GPGSV,3,3,12,26,09,298,34,21,08,298,35,19,06,022,33,07,04,070,23*76

gpsd: Satellite data OK (3 of 3).
gpsd: => client(0): $GPGSV,3,3,12,26,09,298,34,21,08,298,35,19,06,022,33,07,04,070,23*76

gpsd: client(1): channel 5 already active.
gpsd: => client(1): GPSD,Y=GSV 1271089260.000 12:15 61 294 44 1:28 57 91 43 1:8 39 64 44 1:5 33 196 36 1:27 28 256 37 1:18 15 320 27 1:10 14 177 27 1:24 10 303 32 1:26 9 298 34 1:21 8 298 35 1:19 6 22 33 1:7 4 70 23 0:

gpsd: <= GPS: $GPRMC,162100.000,A,5036.5065,N,00701.7483,E,51.14,344.07,120410,0,,A*61

gpsd: GPRMC sets mode 2
gpsd: DOPS computed/reported: H=0.795962/0.800000, V=1.277883/1.300000, P=1.505504/1.500000, T=0.691977/0.692970, G=1.656917/1.662179
gpsd: => client(0): $GPRMC,162100.000,A,5036.5065,N,00701.7483,E,51.14,344.07,120410,0,,A*61

gpsd: client(1): channel 5 already active.
gpsd: GPS has a fix (status=1, mode=3).
gpsd: => client(1): GPSD,O=RMC 1271089260.000 0.005 50.608441667 7.029138333 189.200 12.000 29.900 344.0700 26.309 0.000 48.8066 24.00 ? 3

gpsd: <= GPS: $GPGGA,162101.000,5036.5203,N,00701.7421,E,1,11,0.8,189.3,M,47.7,M,,0000*54

gpsd: GPGGA starts a reporting cycle.
gpsd: GPGGA sets status 1 and mode 3 (changed)
gpsd: => client(0): $GPGGA,162101.000,5036.5203,N,00701.7421,E,1,11,0.8,189.3,M,47.7,M,,0000*54

gpsd: client(1): channel 5 already active.
gpsd: GPS has a fix (status=1, mode=3).
gpsd: => client(1): GPSD,O=GGA 1271089261.000 0.005 50.608671667 7.029035000 189.300 12.000 29.900 ? ? 0.000 48.5173 24.00 ? 3

gpsd: <= GPS: $GPGSA,A,3,27,24,28,08,15,18,10,21,05,19,26,,1.5,0.8,1.3*3B

gpsd: GPGSA sets mode 3
gpsd: => client(0): $GPGSA,A,3,27,24,28,08,15,18,10,21,05,19,26,,1.5,0.8,1.3*3B

gpsd: client(1): channel 5 already active.
gpsd: GPS has a fix (status=1, mode=3).
gpsd: => client(1): GPSD,O=GSA 1271089261.000 0.005 50.608671667 7.029035000 189.300 12.000 29.900 ? ? 0.000 48.5173 24.00 ? 3

gpsd: <= GPS: $GPRMC,162101.000,A,5036.5203,N,00701.7421,E,51.81,344.16,120410,0,,A*66

gpsd: GPRMC sets mode 2
gpsd: => client(0): $GPRMC,162101.000,A,5036.5203,N,00701.7421,E,51.81,344.16,120410,0,,A*66

gpsd: client(1): channel 5 already active.
gpsd: GPS has a fix (status=1, mode=3).
gpsd: => client(1): GPSD,O=RMC 1271089261.000 0.005 50.608671667 7.029035000 189.300 12.000 29.900 344.1600 26.653 0.000 48.5173 24.00 ? 3

gpsd: <= GPS: $GPGGA,162102.000,5036.5342,N,00701.7359,E,1,11,0.8,189.0,M,47.7,M,,0000*58

gpsd: GPGGA starts a reporting cycle.
gpsd: GPGGA sets status 1 and mode 3 (changed)
gpsd: => client(0): $GPGGA,162102.000,5036.5342,N,00701.7359,E,1,11,0.8,189.0,M,47.7,M,,0000*58

gpsd: client(1): channel 5 already active.
gpsd: GPS has a fix (status=1, mode=3).
gpsd: => client(1): GPSD,O=GGA 1271089262.000 0.005 50.608903333 7.028931667 189.000 12.000 29.900 ? ? 0.000 48.2315 24.00 ? 3

gpsd: <= GPS: $GPGSA,A,3,27,24,28,08,15,18,10,21,05,19,26,,1.5,0.8,1.3*3B

gpsd: GPGSA sets mode 3
gpsd: => client(0): $GPGSA,A,3,27,24,28,08,15,18,10,21,05,19,26,,1.5,0.8,1.3*3B

gpsd: client(1): channel 5 already active.
gpsd: GPS has a fix (status=1, mode=3).
gpsd: => client(1): GPSD,O=GSA 1271089262.000 0.005 50.608903333 7.028931667 189.000 12.000 29.900 ? ? 0.000 48.2315 24.00 ? 3

gpsd: <= GPS: $GPRMC,162102.000,A,5036.5342,N,00701.7359,E,51.91,344.02,120410,0,,A*6D

gpsd: GPRMC sets mode 2
gpsd: => client(0): $GPRMC,162102.000,A,5036.5342,N,00701.7359,E,51.91,344.02,120410,0,,A*6D

gpsd: client(1): channel 5 already active.
gpsd: GPS has a fix (status=1, mode=3).
gpsd: => client(1): GPSD,O=RMC 1271089262.000 0.005 50.608903333 7.028931667 189.000 12.000 29.900 344.0200 26.705 0.000 48.2315 24.00 ? 3

gpsd: <= GPS: $GPGGA,162103.000,5036.5481,N,00701.7296,E,1,10,0.8,188.8,M,47.7,M,,0000*5B

gpsd: GPGGA starts a reporting cycle.
gpsd: GPGGA sets status 1 and mode 3 (changed)
gpsd: => client(0): $GPGGA,162103.000,5036.5481,N,00701.7296,E,1,10,0.8,188.8,M,47.7,M,,0000*5B

gpsd: client(1): channel 5 already active.
gpsd: GPS has a fix (status=1, mode=3).
gpsd: => client(1): GPSD,O=GGA 1271089263.000 0.005 50.609135000 7.028826667 188.800 12.000 29.900 ? ? 0.000 48.1796 24.00 ? 3

gpsd: <= GPS: $GPGSA,A,3,27,24,28,08,15,18,10,05,19,26,,,1.5,0.8,1.3*38

gpsd: GPGSA sets mode 3
gpsd: => client(0): $GPGSA,A,3,27,24,28,08,15,18,10,05,19,26,,,1.5,0.8,1.3*38

gpsd: client(1): channel 5 already active.
gpsd: GPS has a fix (status=1, mode=3).
gpsd: => client(1): GPSD,O=GSA 1271089263.000 0.005 50.609135000 7.028826667 188.800 12.000 29.900 ? ? 0.000 48.1796 24.00 ? 3

gpsd: <= GPS: $GPRMC,162103.000,A,5036.5481,N,00701.7296,E,51.81,344.12,120410,0,,A*66

gpsd: GPRMC sets mode 2
gpsd: => client(0): $GPRMC,162103.000,A,5036.5481,N,00701.7296,E,51.81,344.12,120410,0,,A*66

gpsd: client(1): channel 5 already active.
gpsd: GPS has a fix (status=1, mode=3).
gpsd: => client(1): GPSD,O=RMC 1271089263.000 0.005 50.609135000 7.028826667 188.800 12.000 29.900 344.1200 26.653 0.000 48.1796 24.00 ? 3

gpsd: <= GPS: $GPGGA,162104.000,5036.5620,N,00701.7233,E,1,10,1.1,188.4,M,47.7,M,,0000*5E

gpsd: GPGGA starts a reporting cycle.
gpsd: GPGGA sets status 1 and mode 3 (changed)
gpsd: => client(0): $GPGGA,162104.000,5036.5620,N,00701.7233,E,1,10,1.1,188.4,M,47.7,M,,0000*5E

gpsd: client(1): channel 5 already active.
gpsd: GPS has a fix (status=1, mode=3).
gpsd: => client(1): GPSD,O=GGA 1271089264.000 0.005 50.609366667 7.028721667 188.400 12.000 29.900 ? ? 0.000 48.1791 24.00 ? 3

gpsd: <= GPS: $GPGSA,A,3,27,24,28,08,15,18,21,05,19,26,,,2.0,1.1,1.7*30

gpsd: GPGSA sets mode 3
gpsd: => client(0): $GPGSA,A,3,27,24,28,08,15,18,21,05,19,26,,,2.0,1.1,1.7*30

gpsd: client(1): channel 5 already active.
gpsd: GPS has a fix (status=1, mode=3).
gpsd: => client(1): GPSD,O=GSA 1271089264.000 0.005 50.609366667 7.028721667 188.400 12.000 29.900 ? ? 0.000 48.1791 24.00 ? 3

gpsd: <= GPS: $GPRMC,162104.000,A,5036.5620,N,00701.7233,E,51.69,344.02,120410,0,,A*60

gpsd: GPRMC sets mode 2
gpsd: => client(0): $GPRMC,162104.000,A,5036.5620,N,00701.7233,E,51.69,344.02,120410,0,,A*60

gpsd: client(1): channel 5 already active.
gpsd: GPS has a fix (status=1, mode=3).
gpsd: => client(1): GPSD,O=RMC 1271089264.000 0.005 50.609366667 7.028721667 188.400 12.000 29.900 344.0200 26.592 0.000 48.1791 24.00 ? 3

gpsd: <= GPS: $GPGGA,162105.000,5036.5758,N,00701.7170,E,1,10,1.1,188.2,M,47.7,M,,0000*53

gpsd: GPGGA starts a reporting cycle.
gpsd: GPGGA sets status 1 and mode 3 (changed)
gpsd: => client(0): $GPGGA,162105.000,5036.5758,N,00701.7170,E,1,10,1.1,188.2,M,47.7,M,,0000*53

gpsd: client(1): channel 5 already active.
gpsd: GPS has a fix (status=1, mode=3).
gpsd: => client(1): GPSD,O=GGA 1271089265.000 0.005 50.609596667 7.028616667 188.200 16.500 39.100 ? ? 0.000 63.5047 28.50 ? 3

gpsd: <= GPS: $GPGSA,A,3,27,24,28,08,15,18,21,05,19,26,,,2.0,1.1,1.7*30

gpsd: GPGSA sets mode 3
gpsd: => client(0): $GPGSA,A,3,27,24,28,08,15,18,21,05,19,26,,,2.0,1.1,1.7*30

gpsd: client(1): channel 5 already active.
gpsd: GPS has a fix (status=1, mode=3).
gpsd: => client(1): GPSD,O=GSA 1271089265.000 0.005 50.609596667 7.028616667 188.200 16.500 39.100 ? ? 0.000 63.5047 28.50 ? 3

gpsd: <= GPS: $GPGSV,3,1,12,15,61,294,44,28,57,091,43,08,39,064,44,05,33,196,34*7F

gpsd: Partial satellite data (1 of 3).
gpsd: => client(0): $GPGSV,3,1,12,15,61,294,44,28,57,091,43,08,39,064,44,05,33,196,34*7F

gpsd: <= GPS: $GPGSV,3,2,12,27,28,256,37,18,15,320,37,10,14,177,,24,10,303,35*7D

gpsd: Partial satellite data (2 of 3).
gpsd: => client(0): $GPGSV,3,2,12,27,28,256,37,18,15,320,37,10,14,177,,24,10,303,35*7D

gpsd: <= GPS: $GPGSV,3,3,12,26,09,298,38,21,08,298,38,19,06,022,34,07,04,070,29*7A

gpsd: Satellite data OK (3 of 3).
gpsd: => client(0): $GPGSV,3,3,12,26,09,298,38,21,08,298,38,19,06,022,34,07,04,070,29*7A

gpsd: client(1): channel 5 already active.
gpsd: => client(1): GPSD,Y=GSV 1271089265.000 12:15 61 294 44 1:28 57 91 43 1:8 39 64 44 1:5 33 196 34 1:27 28 256 37 1:18 15 320 37 1:10 14 177 0 0:24 10 303 35 1:26 9 298 38 1:21 8 298 38 1:19 6 22 34 1:7 4 70 29 0:

gpsd: <= GPS: $GPRMC,162105.000,A,5036.5758,N,00701.7170,E,51.43,343.94,120410,0,,A*6B

gpsd: GPRMC sets mode 2
gpsd: DOPS computed/reported: H=0.951177/1.100000, V=1.497232/1.700000, P=1.773821/2.000000, T=0.877207/0.692970, G=1.978872/1.662179
gpsd: => client(0): $GPRMC,162105.000,A,5036.5758,N,00701.7170,E,51.43,343.94,120410,0,,A*6B

gpsd: client(1): channel 5 already active.
gpsd: GPS has a fix (status=1, mode=3).
gpsd: => client(1): GPSD,O=RMC 1271089265.000 0.005 50.609596667 7.028616667 188.200 16.500 39.100 343.9400 26.458 0.000 63.5047 28.50 ? 3

gpsd: <= GPS: $GPGGA,162106.000,5036.5897,N,00701.7108,E,1,11,0.8,187.9,M,47.7,M,,0000*5E

gpsd: GPGGA starts a reporting cycle.
gpsd: GPGGA sets status 1 and mode 3 (changed)
gpsd: => client(0): $GPGGA,162106.000,5036.5897,N,00701.7108,E,1,11,0.8,187.9,M,47.7,M,,0000*5E

gpsd: client(1): channel 5 already active.
gpsd: GPS has a fix (status=1, mode=3).
gpsd: => client(1): GPSD,O=GGA 1271089266.000 0.005 50.609828333 7.028513333 187.900 16.500 39.100 ? ? 0.000 63.2251 33.00 ? 3

gpsd: <= GPS: $GPGSA,A,3,27,24,28,08,15,18,10,21,05,19,26,,1.5,0.8,1.3*3B

gpsd: GPGSA sets mode 3
gpsd: => client(0): $GPGSA,A,3,27,24,28,08,15,18,10,21,05,19,26,,1.5,0.8,1.3*3B

gpsd: client(1): channel 5 already active.
gpsd: GPS has a fix (status=1, mode=3).
gpsd: => client(1): GPSD,O=GSA 1271089266.000 0.005 50.609828333 7.028513333 187.900 16.500 39.100 ? ? 0.000 63.2251 33.00 ? 3

gpsd: <= GPS: $GPRMC,162106.000,A,5036.5897,N,00701.7108,E,51.77,344.12,120410,0,,A*65

gpsd: GPRMC sets mode 2
gpsd: => client(0): $GPRMC,162106.000,A,5036.5897,N,00701.7108,E,51.77,344.12,120410,0,,A*65

gpsd: client(1): channel 5 already active.
gpsd: GPS has a fix (status=1, mode=3).
gpsd: => client(1): GPSD,O=RMC 1271089266.000 0.005 50.609828333 7.028513333 187.900 16.500 39.100 344.1200 26.633 0.000 63.2251 33.00 ? 3

gpsd: <= GPS: $GPGGA,162107.000,5036.6036,N,00701.7045,E,1,11,0.8,187.6,M,47.7,M,,0000*58

gpsd: GPGGA starts a reporting cycle.
gpsd: GPGGA sets status 1 and mode 3 (changed)
gpsd: => client(0): $GPGGA,162107.000,5036.6036,N,00701.7045,E,1,11,0.8,187.6,M,47.7,M,,0000*58

gpsd: client(1): channel 5 already active.
gpsd: GPS has a fix (status=1, mode=3).
gpsd: => client(1): GPSD,O=GGA 1271089267.000 0.005 50.610060000 7.028408333 187.600 12.000 29.900 ? ? 0.000 48.1780 28.50 ? 3

gpsd: <= GPS: $GPGSA,A,3,27,24,28,08,15,18,10,21,05,19,26,,1.5,0.8,1.3*3B

gpsd: GPGSA sets mode 3
gpsd: => client(0): $GPGSA,A,3,27,24,28,08,15,18,10,21,05,19,26,,1.5,0.8,1.3*3B

gpsd: client(1): channel 5 already active.
gpsd: GPS has a fix (status=1, mode=3).
gpsd: => client(1): GPSD,O=GSA 1271089267.000 0.005 50.610060000 7.028408333 187.600 12.000 29.900 ? ? 0.000 48.1780 28.50 ? 3

gpsd: <= GPS: $GPRMC,162107.000,A,5036.6036,N,00701.7045,E,51.78,344.24,120410,0,,A*66

gpsd: GPRMC sets mode 2
gpsd: => client(0): $GPRMC,162107.000,A,5036.6036,N,00701.7045,E,51.78,344.24,120410,0,,A*66

gpsd: client(1): channel 5 already active.
gpsd: GPS has a fix (status=1, mode=3).
gpsd: => client(1): GPSD,O=RMC 1271089267.000 0.005 50.610060000 7.028408333 187.600 12.000 29.900 344.2400 26.638 0.000 48.1780 28.50 ? 3

gpsd: <= GPS: $GPGGA,162108.000,5036.6175,N,00701.6983,E,1,11,0.8,187.3,M,47.7,M,,0000*56

gpsd: GPGGA starts a reporting cycle.
gpsd: GPGGA sets status 1 and mode 3 (changed)
gpsd: => client(0): $GPGGA,162108.000,5036.6175,N,00701.6983,E,1,11,0.8,187.3,M,47.7,M,,0000*56

gpsd: client(1): channel 5 already active.
gpsd: GPS has a fix (status=1, mode=3).
gpsd: => client(1): GPSD,O=GGA 1271089268.000 0.005 50.610291667 7.028305000 187.300 12.000 29.900 ? ? 0.000 48.2297 24.00 ? 3

gpsd: <= GPS: $GPGSA,A,3,27,24,28,08,15,18,10,21,05,19,26,,1.5,0.8,1.3*3B

gpsd: GPGSA sets mode 3
gpsd: => client(0): $GPGSA,A,3,27,24,28,08,15,18,10,21,05,19,26,,1.5,0.8,1.3*3B

gpsd: client(1): channel 5 already active.
gpsd: GPS has a fix (status=1, mode=3).
gpsd: => client(1): GPSD,O=GSA 1271089268.000 0.005 50.610291667 7.028305000 187.300 12.000 29.900 ? ? 0.000 48.2297 24.00 ? 3

gpsd: <= GPS: $GPRMC,162108.000,A,5036.6175,N,00701.6983,E,51.78,344.24,120410,0,,A*6D

gpsd: GPRMC sets mode 2
gpsd: => client(0): $GPRMC,162108.000,A,5036.6175,N,00701.6983,E,51.78,344.24,120410,0,,A*6D

gpsd: client(1): channel 5 already active.
gpsd: GPS has a fix (status=1, mode=3).
gpsd: => client(1): GPSD,O=RMC 1271089268.000 0.005 50.610291667 7.028305000 187.300 12.000 29.900 344.2400 26.638 0.000 48.2297 24.00 ? 3

gpsd: <= GPS: $GPGGA,162109.000,5036.6314,N,00701.6921,E,1,11,0.8,187.0,M,47.7,M,,0000*59

gpsd: GPGGA starts a reporting cycle.
gpsd: GPGGA sets status 1 and mode 3 (changed)
gpsd: => client(0): $GPGGA,162109.000,5036.6314,N,00701.6921,E,1,11,0.8,187.0,M,47.7,M,,0000*59

gpsd: client(1): channel 5 already active.
gpsd: GPS has a fix (status=1, mode=3).
gpsd: => client(1): GPSD,O=GGA 1271089269.000 0.005 50.610523333 7.028201667 187.000 12.000 29.900 ? ? 0.000 48.2305 24.00 ? 3

gpsd: <= GPS: $GPGSA,A,3,27,24,28,08,15,18,10,21,05,19,26,,1.5,0.8,1.3*3B

gpsd: GPGSA sets mode 3
gpsd: => client(0): $GPGSA,A,3,27,24,28,08,15,18,10,21,05,19,26,,1.5,0.8,1.3*3B

gpsd: client(1): channel 5 already active.
gpsd: GPS has a fix (status=1, mode=3).
gpsd: => client(1): GPSD,O=GSA 1271089269.000 0.005 50.610523333 7.028201667 187.000 12.000 29.900 ? ? 0.000 48.2305 24.00 ? 3

gpsd: <= GPS: $GPRMC,162109.000,A,5036.6314,N,00701.6921,E,51.97,343.97,120410,0,,A*6F

gpsd: GPRMC sets mode 2
gpsd: => client(0): $GPRMC,162109.000,A,5036.6314,N,00701.6921,E,51.97,343.97,120410,0,,A*6F

gpsd: client(1): channel 5 already active.
gpsd: GPS has a fix (status=1, mode=3).
gpsd: => client(1): GPSD,O=RMC 1271089269.000 0.005 50.610523333 7.028201667 187.000 12.000 29.900 343.9700 26.736 0.000 48.2305 24.00 ? 3

gpsd: <= GPS: $GPGGA,162110.000,5036.6453,N,00701.6858,E,1,11,0.8,186.6,M,47.7,M,,0000*5D

gpsd: GPGGA starts a reporting cycle.
gpsd: GPGGA sets status 1 and mode 3 (changed)
gpsd: => client(0): $GPGGA,162110.000,5036.6453,N,00701.6858,E,1,11,0.8,186.6,M,47.7,M,,0000*5D

gpsd: client(1): channel 5 already active.
gpsd: GPS has a fix (status=1, mode=3).
gpsd: => client(1): GPSD,O=GGA 1271089270.000 0.005 50.610755000 7.028096667 186.600 12.000 29.900 ? ? 0.000 48.1785 24.00 ? 3

gpsd: <= GPS: $GPGSA,A,3,27,24,28,08,15,18,10,21,05,19,26,,1.5,0.8,1.3*3B

gpsd: GPGSA sets mode 3
gpsd: => client(0): $GPGSA,A,3,27,24,28,08,15,18,10,21,05,19,26,,1.5,0.8,1.3*3B

gpsd: client(1): channel 5 already active.
gpsd: GPS has a fix (status=1, mode=3).
gpsd: => client(1): GPSD,O=GSA 1271089270.000 0.005 50.610755000 7.028096667 186.600 12.000 29.900 ? ? 0.000 48.1785 24.00 ? 3

gpsd: <= GPS: $GPGSV,3,1,12,15,61,294,44,28,57,091,43,08,39,064,45,05,33,196,35*7F

gpsd: Partial satellite data (1 of 3).
gpsd: => client(0): $GPGSV,3,1,12,15,61,294,44,28,57,091,43,08,39,064,45,05,33,196,35*7F

gpsd: <= GPS: $GPGSV,3,2,12,27,28,256,37,18,15,320,36,10,14,177,24,24,10,303,35*7A

gpsd: Partial satellite data (2 of 3).
gpsd: => client(0): $GPGSV,3,2,12,27,28,256,37,18,15,320,36,10,14,177,24,24,10,303,35*7A

gpsd: <= GPS: $GPGSV,3,3,12,26,09,298,37,21,08,298,38,19,06,022,34,07,04,070,26*7A

gpsd: Satellite data OK (3 of 3).
gpsd: => client(0): $GPGSV,3,3,12,26,09,298,37,21,08,298,38,19,06,022,34,07,04,070,26*7A

gpsd: client(1): channel 5 already active.
gpsd: => client(1): GPSD,Y=GSV 1271089270.000 12:15 61 294 44 1:28 57 91 43 1:8 39 64 45 1:5 33 196 35 1:27 28 256 37 1:18 15 320 36 1:10 14 177 24 1:24 10 303 35 1:26 9 298 37 1:21 8 298 38 1:19 6 22 34 1:7 4 70 26 0:

gpsd: <= GPS: $GPRMC,162110.000,A,5036.6453,N,00701.6858,E,51.63,343.97,120410,0,,A*67

gpsd: GPRMC sets mode 2
gpsd: DOPS computed/reported: H=0.795962/0.800000, V=1.277883/1.300000, P=1.505504/1.500000, T=0.691977/0.692970, G=1.656917/1.662179
gpsd: => client(0): $GPRMC,162110.000,A,5036.6453,N,00701.6858,E,51.63,343.97,120410,0,,A*67

gpsd: client(1): channel 5 already active.
gpsd: GPS has a fix (status=1, mode=3).
gpsd: => client(1): GPSD,O=RMC 1271089270.000 0.005 50.610755000 7.028096667 186.600 12.000 29.900 343.9700 26.561 0.000 48.1785 24.00 ? 3

gpsd: <= GPS: $GPGGA,162111.000,5036.6590,N,00701.6796,E,1,11,0.8,186.3,M,47.7,M,,0000*5A

gpsd: GPGGA starts a reporting cycle.
gpsd: GPGGA sets status 1 and mode 3 (changed)
gpsd: => client(0): $GPGGA,162111.000,5036.6590,N,00701.6796,E,1,11,0.8,186.3,M,47.7,M,,0000*5A

gpsd: client(1): channel 5 already active.
gpsd: GPS has a fix (status=1, mode=3).
gpsd: => client(1): GPSD,O=GGA 1271089271.000 0.005 50.610983333 7.027993333 186.300 12.000 29.900 ? ? 0.000 48.8057 24.00 ? 3

gpsd: <= GPS: $GPGSA,A,3,27,24,28,08,15,18,10,21,05,19,26,,1.5,0.8,1.3*3B

gpsd: GPGSA sets mode 3
gpsd: => client(0): $GPGSA,A,3,27,24,28,08,15,18,10,21,05,19,26,,1.5,0.8,1.3*3B

gpsd: client(1): channel 5 already active.
gpsd: GPS has a fix (status=1, mode=3).
gpsd: => client(1): GPSD,O=GSA 1271089271.000 0.005 50.610983333 7.027993333 186.300 12.000 29.900 ? ? 0.000 48.8057 24.00 ? 3

gpsd: <= GPS: $GPRMC,162111.000,A,5036.6590,N,00701.6796,E,50.58,344.06,120410,0,,A*63

gpsd: GPRMC sets mode 2
gpsd: => client(0): $GPRMC,162111.000,A,5036.6590,N,00701.6796,E,50.58,344.06,120410,0,,A*63

gpsd: client(1): channel 5 already active.
gpsd: GPS has a fix (status=1, mode=3).
gpsd: => client(1): GPSD,O=RMC 1271089271.000 0.005 50.610983333 7.027993333 186.300 12.000 29.900 344.0600 26.021 0.000 48.8057 24.00 ? 3

gpsd: <= GPS: $GPGGA,162112.000,5036.6721,N,00701.6737,E,1,11,0.8,186.1,M,47.7,M,,0000*58

gpsd: GPGGA starts a reporting cycle.
gpsd: GPGGA sets status 1 and mode 3 (changed)
gpsd: => client(0): $GPGGA,162112.000,5036.6721,N,00701.6737,E,1,11,0.8,186.1,M,47.7,M,,0000*58

gpsd: client(1): channel 5 already active.
gpsd: GPS has a fix (status=1, mode=3).
gpsd: => client(1): GPSD,O=GGA 1271089272.000 0.005 50.611201667 7.027895000 186.100 12.000 29.900 ? ? 0.000 50.7815 24.00 ? 3

gpsd: <= GPS: $GPGSA,A,3,27,24,28,08,15,18,10,21,05,19,26,,1.5,0.8,1.3*3B

gpsd: GPGSA sets mode 3
gpsd: => client(0): $GPGSA,A,3,27,24,28,08,15,18,10,21,05,19,26,,1.5,0.8,1.3*3B

gpsd: client(1): channel 5 already active.
gpsd: GPS has a fix (status=1, mode=3).
gpsd: => client(1): GPSD,O=GSA 1271089272.000 0.005 50.611201667 7.027895000 186.100 12.000 29.900 ? ? 0.000 50.7815 24.00 ? 3

gpsd: <= GPS: $GPRMC,162112.000,A,5036.6721,N,00701.6737,E,47.39,344.44,120410,0,,A*64

gpsd: GPRMC sets mode 2
gpsd: => client(0): $GPRMC,162112.000,A,5036.6721,N,00701.6737,E,47.39,344.44,120410,0,,A*64

gpsd: client(1): channel 5 already active.
gpsd: GPS has a fix (status=1, mode=3).
gpsd: => client(1): GPSD,O=RMC 1271089272.000 0.005 50.611201667 7.027895000 186.100 12.000 29.900 344.4400 24.380 0.000 50.7815 24.00 ? 3

gpsd: <= GPS: $GPGGA,162113.000,5036.6842,N,00701.6684,E,1,11,0.8,185.8,M,47.7,M,,0000*50

gpsd: GPGGA starts a reporting cycle.
gpsd: GPGGA sets status 1 and mode 3 (changed)
gpsd: => client(0): $GPGGA,162113.000,5036.6842,N,00701.6684,E,1,11,0.8,185.8,M,47.7,M,,0000*50

gpsd: client(1): channel 5 already active.
gpsd: GPS has a fix (status=1, mode=3).
gpsd: => client(1): GPSD,O=GGA 1271089273.000 0.005 50.611403333 7.027806667 185.800 12.000 29.900 ? ? 0.000 54.4895 24.00 ? 3

gpsd: <= GPS: $GPGSA,A,3,27,24,28,08,15,18,10,21,05,19,26,,1.5,0.8,1.3*3B

gpsd: GPGSA sets mode 3
gpsd: => client(0): $GPGSA,A,3,27,24,28,08,15,18,10,21,05,19,26,,1.5,0.8,1.3*3B

gpsd: client(1): channel 5 already active.
gpsd: GPS has a fix (status=1, mode=3).
gpsd: => client(1): GPSD,O=GSA 1271089273.000 0.005 50.611403333 7.027806667 185.800 12.000 29.900 ? ? 0.000 54.4895 24.00 ? 3

gpsd: <= GPS: $GPRMC,162113.000,A,5036.6842,N,00701.6684,E,42.98,344.59,120410,0,,A*64

gpsd: GPRMC sets mode 2
gpsd: => client(0): $GPRMC,162113.000,A,5036.6842,N,00701.6684,E,42.98,344.59,120410,0,,A*64

gpsd: client(1): channel 5 already active.
gpsd: GPS has a fix (status=1, mode=3).
gpsd: => client(1): GPSD,O=RMC 1271089273.000 0.005 50.611403333 7.027806667 185.800 12.000 29.900 344.5900 22.111 0.000 54.4895 24.00 ? 3

gpsd: <= GPS: $GPGGA,162114.000,5036.6950,N,00701.6636,E,1,11,0.8,185.5,M,47.7,M,,0000*51

gpsd: GPGGA starts a reporting cycle.
gpsd: GPGGA sets status 1 and mode 3 (changed)
gpsd: => client(0): $GPGGA,162114.000,5036.6950,N,00701.6636,E,1,11,0.8,185.5,M,47.7,M,,0000*51

gpsd: client(1): channel 5 already active.
gpsd: GPS has a fix (status=1, mode=3).
gpsd: => client(1): GPSD,O=GGA 1271089274.000 0.005 50.611583333 7.027726667 185.500 12.000 29.900 ? ? 0.000 59.9088 24.00 ? 3

gpsd: <= GPS: $GPGSA,A,3,27,24,28,08,15,18,10,21,05,19,26,,1.5,0.8,1.3*3B

gpsd: GPGSA sets mode 3
gpsd: => client(0): $GPGSA,A,3,27,24,28,08,15,18,10,21,05,19,26,,1.5,0.8,1.3*3B

gpsd: client(1): channel 5 already active.
gpsd: GPS has a fix (status=1, mode=3).
gpsd: => client(1): GPSD,O=GSA 1271089274.000 0.005 50.611583333 7.027726667 185.500 12.000 29.900 ? ? 0.000 59.9088 24.00 ? 3

gpsd: <= GPS: $GPRMC,162114.000,A,5036.6950,N,00701.6636,E,37.99,344.37,120410,0,,A*63

gpsd: GPRMC sets mode 2
gpsd: => client(0): $GPRMC,162114.000,A,5036.6950,N,00701.6636,E,37.99,344.37,120410,0,,A*63

gpsd: client(1): channel 5 already active.
gpsd: GPS has a fix (status=1, mode=3).
gpsd: => client(1): GPSD,O=RMC 1271089274.000 0.005 50.611583333 7.027726667 185.500 12.000 29.900 344.3700 19.544 0.000 59.9088 24.00 ? 3

gpsd: <= GPS: $GPGGA,162115.000,5036.7044,N,00701.6594,E,1,11,0.8,185.3,M,47.7,M,,0000*50

gpsd: GPGGA starts a reporting cycle.
gpsd: GPGGA sets status 1 and mode 3 (changed)
gpsd: => client(0): $GPGGA,162115.000,5036.7044,N,00701.6594,E,1,11,0.8,185.3,M,47.7,M,,0000*50

gpsd: client(1): channel 5 already active.
gpsd: GPS has a fix (status=1, mode=3).
gpsd: => client(1): GPSD,O=GGA 1271089275.000 0.005 50.611740000 7.027656667 185.300 12.000 29.900 ? ? 0.000 66.9981 24.00 ? 3

gpsd: <= GPS: $GPGSA,A,3,27,24,28,08,15,18,10,21,05,19,26,,1.5,0.8,1.3*3B

gpsd: GPGSA sets mode 3
gpsd: => client(0): $GPGSA,A,3,27,24,28,08,15,18,10,21,05,19,26,,1.5,0.8,1.3*3B

gpsd: client(1): channel 5 already active.
gpsd: GPS has a fix (status=1, mode=3).
gpsd: => client(1): GPSD,O=GSA 1271089275.000 0.005 50.611740000 7.027656667 185.300 12.000 29.900 ? ? 0.000 66.9981 24.00 ? 3

gpsd: <= GPS: $GPGSV,3,1,12,15,61,294,44,28,57,091,43,08,39,064,44,05,33,196,34*7F

gpsd: Partial satellite data (1 of 3).
gpsd: => client(0): $GPGSV,3,1,12,15,61,294,44,28,57,091,43,08,39,064,44,05,33,196,34*7F

gpsd: <= GPS: $GPGSV,3,2,12,27,28,256,37,18,15,320,36,10,14,177,27,24,10,303,35*79

gpsd: Partial satellite data (2 of 3).
gpsd: => client(0): $GPGSV,3,2,12,27,28,256,37,18,15,320,36,10,14,177,27,24,10,303,35*79

gpsd: <= GPS: $GPGSV,3,3,12,26,09,298,37,21,08,298,38,19,06,022,33,07,04,070,16*7E

gpsd: Satellite data OK (3 of 3).
gpsd: => client(0): $GPGSV,3,3,12,26,09,298,37,21,08,298,38,19,06,022,33,07,04,070,16*7E

gpsd: client(1): channel 5 already active.
gpsd: => client(1): GPSD,Y=GSV 1271089275.000 12:15 61 294 44 1:28 57 91 43 1:8 39 64 44 1:5 33 196 34 1:27 28 256 37 1:18 15 320 36 1:10 14 177 27 1:24 10 303 35 1:26 9 298 37 1:21 8 298 38 1:19 6 22 33 1:7 4 70 16 0:

gpsd: <= GPS: $GPRMC,162115.000,A,5036.7044,N,00701.6594,E,32.74,344.32,120410,0,,A*67

gpsd: GPRMC sets mode 2
gpsd: DOPS computed/reported: H=0.795962/0.800000, V=1.277883/1.300000, P=1.505504/1.500000, T=0.691977/0.692970, G=1.656917/1.662179
gpsd: => client(0): $GPRMC,162115.000,A,5036.7044,N,00701.6594,E,32.74,344.32,120410,0,,A*67

gpsd: client(1): channel 5 already active.
gpsd: GPS has a fix (status=1, mode=3).
gpsd: => client(1): GPSD,O=RMC 1271089275.000 0.005 50.611740000 7.027656667 185.300 12.000 29.900 344.3200 16.843 0.000 66.9981 24.00 ? 3

gpsd: <= GPS: $GPGGA,162116.000,5036.7124,N,00701.6559,E,1,11,0.8,185.0,M,47.7,M,,0000*56

gpsd: GPGGA starts a reporting cycle.
gpsd: GPGGA sets status 1 and mode 3 (changed)
gpsd: => client(0): $GPGGA,162116.000,5036.7124,N,00701.6559,E,1,11,0.8,185.0,M,47.7,M,,0000*56

gpsd: client(1): channel 5 already active.
gpsd: GPS has a fix (status=1, mode=3).
gpsd: => client(1): GPSD,O=GGA 1271089276.000 0.005 50.611873333 7.027598333 185.000 12.000 29.900 ? ? 0.000 75.8282 24.00 ? 3

gpsd: <= GPS: $GPGSA,A,3,27,24,28,08,15,18,10,21,05,19,26,,1.5,0.8,1.3*3B

gpsd: GPGSA sets mode 3
gpsd: => client(0): $GPGSA,A,3,27,24,28,08,15,18,10,21,05,19,26,,1.5,0.8,1.3*3B

gpsd: client(1): channel 5 already active.
gpsd: GPS has a fix (status=1, mode=3).
gpsd: => client(1): GPSD,O=GSA 1271089276.000 0.005 50.611873333 7.027598333 185.000 12.000 29.900 ? ? 0.000 75.8282 24.00 ? 3

gpsd: <= GPS: $GPRMC,162116.000,A,5036.7124,N,00701.6559,E,27.49,344.83,120410,0,,A*62

gpsd: GPRMC sets mode 2
gpsd: => client(0): $GPRMC,162116.000,A,5036.7124,N,00701.6559,E,27.49,344.83,120410,0,,A*62

gpsd: client(1): channel 5 already active.
gpsd: GPS has a fix (status=1, mode=3).
gpsd: => client(1): GPSD,O=RMC 1271089276.000 0.005 50.611873333 7.027598333 185.000 12.000 29.900 344.8300 14.142 0.000 75.8282 24.00 ? 3

gpsd: <= GPS: $GPGGA,162117.000,5036.7189,N,00701.6531,E,1,11,0.8,184.9,M,47.7,M,,0000*56

gpsd: GPGGA starts a reporting cycle.
gpsd: GPGGA sets status 1 and mode 3 (changed)
gpsd: => client(0): $GPGGA,162117.000,5036.7189,N,00701.6531,E,1,11,0.8,184.9,M,47.7,M,,0000*56

gpsd: client(1): channel 5 already active.
gpsd: GPS has a fix (status=1, mode=3).
gpsd: => client(1): GPSD,O=GGA 1271089277.000 0.005 50.611981667 7.027551667 184.900 12.000 29.900 ? ? 0.000 87.6384 24.00 ? 3

gpsd: <= GPS: $GPGSA,A,3,27,24,28,08,15,18,10,21,05,19,26,,1.5,0.8,1.3*3B

gpsd: GPGSA sets mode 3
gpsd: => client(0): $GPGSA,A,3,27,24,28,08,15,18,10,21,05,19,26,,1.5,0.8,1.3*3B

gpsd: client(1): channel 5 already active.
gpsd: GPS has a fix (status=1, mode=3).
gpsd: => client(1): GPSD,O=GSA 1271089277.000 0.005 50.611981667 7.027551667 184.900 12.000 29.900 ? ? 0.000 87.6384 24.00 ? 3

gpsd: <= GPS: $GPRMC,162117.000,A,5036.7189,N,00701.6531,E,21.85,345.08,120410,0,,A*6E

gpsd: GPRMC sets mode 2
gpsd: => client(0): $GPRMC,162117.000,A,5036.7189,N,00701.6531,E,21.85,345.08,120410,0,,A*6E

gpsd: client(1): channel 5 already active.
gpsd: GPS has a fix (status=1, mode=3).
gpsd: => client(1): GPSD,O=RMC 1271089277.000 0.005 50.611981667 7.027551667 184.900 12.000 29.900 345.0800 11.241 0.000 87.6384 24.00 ? 3

gpsd: <= GPS: $GPGGA,162118.000,5036.7238,N,00701.6510,E,1,11,0.8,184.7,M,47.7,M,,0000*5D

gpsd: GPGGA starts a reporting cycle.
gpsd: GPGGA sets status 1 and mode 3 (changed)
gpsd: => client(0): $GPGGA,162118.000,5036.7238,N,00701.6510,E,1,11,0.8,184.7,M,47.7,M,,0000*5D

gpsd: client(1): channel 5 already active.
gpsd: GPS has a fix (status=1, mode=3).
gpsd: => client(1): GPSD,O=GGA 1271089278.000 0.005 50.612063333 7.027516667 184.700 12.000 29.900 ? ? 0.000 ? 24.00 ? 3

gpsd: <= GPS: $GPGSA,A,3,27,24,28,08,15,18,10,21,05,19,26,,1.5,0.8,1.3*3B

gpsd: GPGSA sets mode 3
gpsd: => client(0): $GPGSA,A,3,27,24,28,08,15,18,10,21,05,19,26,,1.5,0.8,1.3*3B

gpsd: client(1): channel 5 already active.
gpsd: GPS has a fix (status=1, mode=3).
gpsd: => client(1): GPSD,O=GSA 1271089278.000 0.005 50.612063333 7.027516667 184.700 12.000 29.900 ? ? 0.000 ? 24.00 ? 3

gpsd: checking client(0)
gpsd: detaching 127.0.0.1 (sub 0, fd 6) in detach_client
gpsd: checking client(1)
gpsd: detaching 127.0.0.1 (sub 1, fd 7) in detach_client
gpsd: Received terminating signal 15. Exiting...
gpsd: closing GPS=/dev/rfcomm0 (5)


let me know if you need more information

greets, fisted


Reply to this message